Wetterdaten: Sonntag, 05.03.2023
Datum Zeit Temp. Aussen Temp. o. S. Temp +5cm Feuchte Auss Luftdruck Regen Sonnenschein Regendauer Solar Windben Empfang
05.03.2023 00:00 4,7 C 3,9 C 0,6 C 85 % 1022,8 hPa 0,0 l/m 0 min 0 min 0 W/m 9,7 km/h (2 Bft) 100,00 %
05.03.2023 00:02 4,7 C 3,9 C 0,6 C 85 % 1022,8 hPa 0,0 l/m 0 min 0 min 0 W/m 16,1 km/h (3 Bft) 97,06 %
05.03.2023 00:04 4,6 C 3,9 C 0,6 C 85 % 1022,8 hPa 0,0 l/m 0 min 0 min 0 W/m 6,4 km/h (2 Bft) 97,83 %
05.03.2023 00:07 4,6 C 3,9 C 0,6 C 85 % 1022,8 hPa 0,0 l/m 0 min 0 min 0 W/m 12,9 km/h (3 Bft) 98,78 %
05.03.2023 00:08 4,6 C 3,9 C 0,6 C 85 % 1022,8 hPa 0,0 l/m 0 min 0 min 0 W/m 9,7 km/h (2 Bft) 100,00 %
05.03.2023 00:12 4,6 C 3,9 C 0,6 C 85 % 1022,7 hPa 0,0 l/m 0 min 0 min 0 W/m 9,7 km/h (2 Bft) 100,00 %
05.03.2023 00:14 4,6 C 3,9 C 0,6 C 85 % 1022,8 hPa 0,0 l/m 0 min 0 min 0 W/m 6,4 km/h (2 Bft) 100,00 %
05.03.2023 00:16 4,6 C 3,9 C 0,6 C 85 % 1022,8 hPa 0,0 l/m 0 min 0 min 0 W/m 6,4 km/h (2 Bft) 100,00 %
05.03.2023 00:18 4,6 C 3,9 C 0,6 C 85 % 1022,8 hPa 0,0 l/m 0 min 0 min 0 W/m 6,4 km/h (2 Bft) 100,00 %
05.03.2023 00:20 4,6 C 3,9 C 0,6 C 85 % 1022,8 hPa 0,0 l/m 0 min 0 min 0 W/m 12,9 km/h (3 Bft) 97,87 %
05.03.2023 00:22 4,6 C 3,9 C 0,6 C 85 % 1022,7 hPa 0,0 l/m 0 min 0 min 0 W/m 12,9 km/h (3 Bft) 97,87 %
05.03.2023 00:24 4,6 C 3,9 C 0,6 C 85 % 1022,7 hPa 0,0 l/m 0 min 0 min 0 W/m 6,4 km/h (2 Bft) 97,83 %
05.03.2023 00:26 4,6 C 3,9 C 0,6 C 85 % 1022,7 hPa 0,0 l/m 0 min 0 min 0 W/m 6,4 km/h (2 Bft) 97,87 %
05.03.2023 00:28 4,6 C 3,9 C 0,6 C 86 % 1022,7 hPa 0,0 l/m 0 min 0 min 0 W/m 6,4 km/h (2 Bft) 97,87 %
05.03.2023 00:30 4,6 C 3,9 C 0,6 C 86 % 1022,7 hPa 0,0 l/m 0 min 0 min 0 W/m 6,4 km/h (2 Bft) 97,87 %
05.03.2023 00:32 4,6 C 3,9 C 0,6 C 86 % 1022,7 hPa 0,0 l/m 0 min 0 min 0 W/m 6,4 km/h (2 Bft) 95,74 %
05.03.2023 00:34 4,6 C 3,9 C 0,6 C 86 % 1022,7 hPa 0,0 l/m 0 min 0 min 0 W/m 6,4 km/h (2 Bft) 93,62 %
05.03.2023 00:36 4,5 C 3,9 C 0,6 C 86 % 1022,6 hPa 0,0 l/m 0 min 0 min 0 W/m 3,2 km/h (1 Bft) 95,74 %
05.03.2023 00:38 4,5 C 3,9 C 0,6 C 86 % 1022,7 hPa 0,0 l/m 0 min 0 min 0 W/m 3,2 km/h (1 Bft) 93,62 %
05.03.2023 00:40 4,5 C 3,9 C 0,6 C 86 % 1022,6 hPa 0,0 l/m 0 min 0 min 0 W/m 6,4 km/h (2 Bft) 95,74 %
05.03.2023 00:42 4,5 C 3,9 C 0,6 C 86 % 1022,7 hPa 0,0 l/m 0 min 0 min 0 W/m 6,4 km/h (2 Bft) 95,74 %
05.03.2023 00:44 4,5 C 3,9 C 0,6 C 86 % 1022,6 hPa 0,0 l/m 0 min 0 min 0 W/m 6,4 km/h (2 Bft) 95,74 %
05.03.2023 00:46 4,5 C 3,9 C 0,6 C 86 % 1022,6 hPa 0,0 l/m 0 min 0 min 0 W/m 6,4 km/h (2 Bft) 95,74 %
05.03.2023 00:48 4,5 C 3,9 C 0,6 C 86 % 1022,6 hPa 0,0 l/m 0 min 0 min 0 W/m 3,2 km/h (1 Bft) 95,92 %
05.03.2023 00:50 4,4 C 3,9 C 0,6 C 86 % 1022,6 hPa 0,0 l/m 0 min 0 min 0 W/m 6,4 km/h (2 Bft) 91,49 %
05.03.2023 00:52 4,4 C 3,9 C 0,6 C 86 % 1022,6 hPa 0,0 l/m 0 min 0 min 0 W/m 3,2 km/h (1 Bft) 83,33 %
05.03.2023 00:54 4,4 C 3,9 C 0,6 C 86 % 1022,6 hPa 0,0 l/m 0 min 0 min 0 W/m 3,2 km/h (1 Bft) 65,91 %
05.03.2023 00:56 4,4 C 3,9 C 0,6 C 86 % 1022,5 hPa 0,0 l/m 0 min 0 min 0 W/m 6,4 km/h (2 Bft) 98,18 %
05.03.2023 00:58 4,4 C 3,9 C 0,6 C 86 % 1022,5 hPa 0,0 l/m 0 min 0 min 0 W/m 6,4 km/h (2 Bft) 98,00 %
05.03.2023 01:00 4,4 C 3,9 C 0,6 C 87 % 1022,5 hPa 0,0 l/m 0 min 0 min 0 W/m 3,2 km/h (1 Bft) 95,74 %
05.03.2023 01:02 4,4 C 3,9 C 0,6 C 87 % 1022,5 hPa 0,0 l/m 0 min 0 min 0 W/m 3,2 km/h (1 Bft) 100,00 %
05.03.2023 01:04 4,4 C 3,9 C 0,0 C 87 % 1022,4 hPa 0,0 l/m 0 min 0 min 0 W/m 3,2 km/h (1 Bft) 97,83 %
05.03.2023 01:06 4,4 C 3,9 C 0,0 C 87 % 1022,4 hPa 0,0 l/m 0 min 0 min 0 W/m 6,4 km/h (2 Bft) 95,74 %
05.03.2023 01:08 4,4 C 3,9 C 0,0 C 87 % 1022,4 hPa 0,0 l/m 0 min 0 min 0 W/m 6,4 km/h (2 Bft) 95,74 %
05.03.2023 01:10 4,4 C 3,9 C 0,0 C 87 % 1022,4 hPa 0,0 l/m 0 min 0 min 0 W/m 6,4 km/h (2 Bft) 97,87 %
05.03.2023 01:12 4,3 C 3,9 C 0,0 C 87 % 1022,4 hPa 0,0 l/m 0 min 0 min 0 W/m 3,2 km/h (1 Bft) 98,00 %
05.03.2023 01:14 4,3 C 3,9 C 0,0 C 87 % 1022,4 hPa 0,0 l/m 0 min 0 min 0 W/m 3,2 km/h (1 Bft) 95,92 %
05.03.2023 01:16 4,3 C 3,9 C 0,0 C 87 % 1022,4 hPa 0,0 l/m 0 min 0 min 0 W/m 3,2 km/h (1 Bft) 97,14 %
05.03.2023 01:18 4,3 C 3,9 C 0,0 C 87 % 1022,3 hPa 0,0 l/m 0 min 0 min 0 W/m 6,4 km/h (2 Bft) 95,74 %
05.03.2023 01:20 4,3 C 3,9 C 0,0 C 87 % 1022,3 hPa 0,0 l/m 0 min 0 min 0 W/m 6,4 km/h (2 Bft) 97,87 %
05.03.2023 01:22 4,3 C 3,3 C 0,0 C 87 % 1022,3 hPa 0,0 l/m 0 min 0 min 0 W/m 3,2 km/h (1 Bft) 97,87 %
05.03.2023 01:24 4,3 C 3,3 C 0,0 C 87 % 1022,4 hPa 0,0 l/m 0 min 0 min 0 W/m 3,2 km/h (1 Bft) 95,74 %
05.03.2023 01:26 4,3 C 3,9 C 0,0 C 87 % 1022,3 hPa 0,0 l/m 0 min 0 min 0 W/m 6,4 km/h (2 Bft) 97,83 %
05.03.2023 01:28 4,3 C 3,9 C 0,0 C 87 % 1022,3 hPa 0,0 l/m 0 min 0 min 0 W/m 3,2 km/h (1 Bft) 100,00 %
05.03.2023 01:30 4,3 C 3,9 C 0,0 C 87 % 1022,4 hPa 0,0 l/m 0 min 0 min 0 W/m 3,2 km/h (1 Bft) 97,87 %
05.03.2023 01:32 4,2 C 3,3 C 0,0 C 87 % 1022,4 hPa 0,0 l/m 0 min 0 min 0 W/m 6,4 km/h (2 Bft) 100,00 %
05.03.2023 01:34 4,2 C 3,3 C 0,0 C 87 % 1022,3 hPa 0,0 l/m 0 min 0 min 0 W/m 3,2 km/h (1 Bft) 97,87 %
05.03.2023 01:36 4,2 C 3,9 C 0,0 C 87 % 1022,3 hPa 0,0 l/m 0 min 0 min 0 W/m 3,2 km/h (1 Bft) 100,00 %
05.03.2023 01:38 4,3 C 3,3 C 0,0 C 87 % 1022,2 hPa 0,0 l/m 0 min 0 min 0 W/m 6,4 km/h (2 Bft) 97,87 %
05.03.2023 01:40 4,3 C 3,3 C 0,0 C 88 % 1022,2 hPa 0,0 l/m 0 min 0 min 0 W/m 9,7 km/h (2 Bft) 95,65 %
05.03.2023 01:42 4,3 C 3,3 C 0,0 C 88 % 1022,2 hPa 0,0 l/m 0 min 0 min 0 W/m 6,4 km/h (2 Bft) 95,74 %
05.03.2023 01:44 4,3 C 3,3 C 0,0 C 88 % 1022,2 hPa 0,0 l/m 0 min 0 min 0 W/m 9,7 km/h (2 Bft) 93,62 %
05.03.2023 01:46 4,3 C 3,3 C 0,0 C 88 % 1022,2 hPa 0,0 l/m 0 min 0 min 0 W/m 6,4 km/h (2 Bft) 95,74 %
05.03.2023 01:48 4,3 C 3,3 C 0,0 C 88 % 1022,1 hPa 0,0 l/m 0 min 0 min 0 W/m 6,4 km/h (2 Bft) 100,00 %
05.03.2023 01:50 4,2 C 3,3 C 0,0 C 88 % 1022,1 hPa 0,0 l/m 0 min 0 min 0 W/m 6,4 km/h (2 Bft) 97,87 %
05.03.2023 01:52 4,2 C 3,3 C 0,0 C 88 % 1022,2 hPa 0,0 l/m 0 min 0 min 0 W/m 3,2 km/h (1 Bft) 85,11 %
05.03.2023 01:54 4,2 C 3,3 C 0,0 C 89 % 1022,1 hPa 0,0 l/m 0 min 0 min 0 W/m 6,4 km/h (2 Bft) 2,86 %
05.03.2023 01:56 4,2 C 3,3 C 0,0 C 89 % 1022,1 hPa 0,0 l/m 0 min 0 min 0 W/m 6,4 km/h (2 Bft) 95,74 %
05.03.2023 01:58 4,2 C 3,3 C 0,0 C 89 % 1022,1 hPa 0,0 l/m 0 min 0 min 0 W/m 9,7 km/h (2 Bft) 97,87 %
05.03.2023 02:00 4,2 C 3,3 C 0,0 C 89 % 1022,0 hPa 0,0 l/m 0 min 0 min 0 W/m 3,2 km/h (1 Bft) 97,87 %
05.03.2023 02:02 4,2 C 3,3 C 0,0 C 89 % 1022,0 hPa 0,0 l/m 0 min 0 min 0 W/m 6,4 km/h (2 Bft) 97,87 %
05.03.2023 02:04 4,1 C 3,3 C 0,0 C 89 % 1022,0 hPa 0,0 l/m 0 min 0 min 0 W/m 3,2 km/h (1 Bft) 95,74 %
05.03.2023 02:09 4,1 C 3,3 C 0,0 C 89 % 1022,0 hPa 0,0 l/m 0 min 0 min 0 W/m 6,4 km/h (2 Bft) 100,00 %
05.03.2023 02:10 4,1 C 3,3 C 0,0 C 89 % 1022,0 hPa 0,0 l/m 0 min 0 min 0 W/m 3,2 km/h (1 Bft) 91,30 %
05.03.2023 02:12 4,1 C 3,3 C 0,0 C 89 % 1022,0 hPa 0,0 l/m 0 min 0 min 0 W/m 3,2 km/h (1 Bft) 100,00 %
05.03.2023 02:14 4,1 C 3,3 C 0,0 C 89 % 1022,0 hPa 0,0 l/m 0 min 0 min 0 W/m 3,2 km/h (1 Bft) 93,62 %
05.03.2023 02:16 4,0 C 3,3 C 0,0 C 89 % 1021,9 hPa 0,0 l/m 0 min 0 min 0 W/m 6,4 km/h (2 Bft) 95,74 %
05.03.2023 02:18 4,0 C 3,3 C 0,0 C 89 % 1021,9 hPa 0,0 l/m 0 min 0 min 0 W/m 3,2 km/h (1 Bft) 95,74 %
05.03.2023 02:20 4,0 C 3,3 C 0,0 C 89 % 1021,9 hPa 0,0 l/m 0 min 0 min 0 W/m 6,4 km/h (2 Bft) 97,87 %
05.03.2023 02:22 4,0 C 3,3 C 0,0 C 89 % 1021,9 hPa 0,0 l/m 0 min 0 min 0 W/m 3,2 km/h (1 Bft) 97,83 %
05.03.2023 02:24 4,0 C 3,3 C 0,0 C 89 % 1021,9 hPa 0,0 l/m 0 min 0 min 0 W/m 3,2 km/h (1 Bft) 97,87 %
05.03.2023 02:26 3,9 C 3,3 C 0,0 C 89 % 1021,8 hPa 0,0 l/m 0 min 0 min 0 W/m 6,4 km/h (2 Bft) 97,87 %
05.03.2023 02:28 3,9 C 3,3 C 0,0 C 89 % 1021,8 hPa 0,0 l/m 0 min 0 min 0 W/m 6,4 km/h (2 Bft) 95,74 %
05.03.2023 02:30 3,9 C 3,3 C 0,0 C 89 % 1021,8 hPa 0,0 l/m 0 min 0 min 0 W/m 6,4 km/h (2 Bft) 97,87 %
05.03.2023 02:32 3,9 C 3,3 C 0,0 C 89 % 1021,7 hPa 0,0 l/m 0 min 0 min 0 W/m 6,4 km/h (2 Bft) 97,37 %
05.03.2023 02:34 3,9 C 3,3 C 0,0 C 89 % 1021,7 hPa 0,0 l/m 0 min 0 min 0 W/m 6,4 km/h (2 Bft) 97,83 %
05.03.2023 02:36 3,9 C 3,3 C 0,0 C 89 % 1021,7 hPa 0,0 l/m 0 min 0 min 0 W/m 3,2 km/h (1 Bft) 97,87 %
05.03.2023 02:38 3,9 C 3,3 C 0,0 C 89 % 1021,7 hPa 0,0 l/m 0 min 0 min 0 W/m 3,2 km/h (1 Bft) 100,00 %
05.03.2023 02:40 3,8 C 3,3 C 0,0 C 89 % 1021,7 hPa 0,0 l/m 0 min 0 min 0 W/m 3,2 km/h (1 Bft) 100,00 %
05.03.2023 02:42 3,8 C 3,3 C 0,0 C 90 % 1021,7 hPa 0,0 l/m 0 min 0 min 0 W/m 3,2 km/h (1 Bft) 100,00 %
05.03.2023 02:44 3,8 C 3,3 C 0,0 C 90 % 1021,7 hPa 0,0 l/m 0 min 0 min 0 W/m 3,2 km/h (1 Bft) 100,00 %
05.03.2023 02:46 3,8 C 3,3 C 0,0 C 90 % 1021,6 hPa 0,0 l/m 0 min 0 min 0 W/m 9,7 km/h (2 Bft) 100,00 %
05.03.2023 02:48 3,8 C 3,3 C 0,0 C 90 % 1021,6 hPa 0,0 l/m 0 min 0 min 0 W/m 6,4 km/h (2 Bft) 100,00 %
05.03.2023 02:50 3,8 C 3,3 C 0,0 C 90 % 1021,6 hPa 0,0 l/m 0 min 0 min 0 W/m 6,4 km/h (2 Bft) 100,00 %
05.03.2023 02:52 3,8 C 3,3 C 0,0 C 90 % 1021,5 hPa 0,0 l/m 0 min 0 min 0 W/m 3,2 km/h (1 Bft) 95,74 %
05.03.2023 02:54 3,8 C 3,3 C 0,0 C 90 % 1021,5 hPa 0,0 l/m 0 min 0 min 0 W/m 6,4 km/h (2 Bft) 97,87 %
05.03.2023 02:56 3,8 C 3,3 C 0,0 C 90 % 1021,5 hPa 0,0 l/m 0 min 0 min 0 W/m 6,4 km/h (2 Bft) 97,87 %
05.03.2023 02:58 3,8 C 3,3 C 0,0 C 90 % 1021,4 hPa 0,0 l/m 0 min 0 min 0 W/m 3,2 km/h (1 Bft) 98,00 %
05.03.2023 03:00 3,8 C 3,3 C 0,0 C 90 % 1021,4 hPa 0,0 l/m 0 min 0 min 0 W/m 6,4 km/h (2 Bft) 97,87 %
05.03.2023 03:02 3,8 C 3,3 C 0,0 C 90 % 1021,4 hPa 0,0 l/m 0 min 0 min 0 W/m 3,2 km/h (1 Bft) 100,00 %
05.03.2023 03:04 3,8 C 3,3 C 0,0 C 90 % 1021,4 hPa 0,0 l/m 0 min 0 min 0 W/m 3,2 km/h (1 Bft) 100,00 %
05.03.2023 03:06 3,8 C 3,3 C 0,0 C 90 % 1021,4 hPa 0,0 l/m 0 min 0 min 0 W/m 6,4 km/h (2 Bft) 100,00 %
05.03.2023 03:08 3,8 C 3,3 C 0,0 C 90 % 1021,3 hPa 0,0 l/m 0 min 0 min 0 W/m 6,4 km/h (2 Bft) 100,00 %
05.03.2023 03:10 3,8 C 3,3 C 0,0 C 90 % 1021,3 hPa 0,0 l/m 0 min 0 min 0 W/m 9,7 km/h (2 Bft) 100,00 %
05.03.2023 03:12 3,8 C 3,3 C 0,0 C 90 % 1021,3 hPa 0,0 l/m 0 min 0 min 0 W/m 3,2 km/h (1 Bft) 97,87 %
05.03.2023 03:14 3,8 C 3,3 C 0,0 C 90 % 1021,2 hPa 0,0 l/m 0 min 0 min 0 W/m 6,4 km/h (2 Bft) 100,00 %
05.03.2023 03:16 3,8 C 3,3 C 0,0 C 90 % 1021,2 hPa 0,0 l/m 0 min 0 min 0 W/m 3,2 km/h (1 Bft) 100,00 %
05.03.2023 03:18 3,8 C 3,3 C 0,0 C 90 % 1021,2 hPa 0,0 l/m 0 min 0 min 0 W/m 0,0 km/h (0 Bft) 100,00 %
05.03.2023 03:20 3,8 C 3,3 C 0,0 C 90 % 1021,2 hPa 0,0 l/m 0 min 0 min 0 W/m 0,0 km/h (0 Bft) 100,00 %
05.03.2023 03:22 3,8 C 3,3 C 0,0 C 90 % 1021,1 hPa 0,0 l/m 0 min 0 min 0 W/m 0,0 km/h (0 Bft) 97,87 %
05.03.2023 03:24 3,8 C 3,3 C 0,0 C 90 % 1021,1 hPa 0,0 l/m 0 min 0 min 0 W/m 9,7 km/h (2 Bft) 100,00 %
05.03.2023 03:26 3,8 C 3,3 C 0,0 C 90 % 1021,1 hPa 0,0 l/m 0 min 0 min 0 W/m 6,4 km/h (2 Bft) 100,00 %
05.03.2023 03:28 3,8 C 3,3 C 0,0 C 90 % 1021,1 hPa 0,0 l/m 0 min 0 min 0 W/m 3,2 km/h (1 Bft) 100,00 %
05.03.2023 03:30 3,8 C 3,3 C 0,0 C 90 % 1021,1 hPa 0,0 l/m 0 min 0 min 0 W/m 3,2 km/h (1 Bft) 100,00 %
05.03.2023 03:32 3,8 C 3,3 C 0,0 C 90 % 1021,1 hPa 0,0 l/m 0 min 0 min 0 W/m 6,4 km/h (2 Bft) 100,00 %
05.03.2023 03:34 3,8 C 3,3 C 0,0 C 90 % 1021,0 hPa 0,0 l/m 0 min 0 min 0 W/m 3,2 km/h (1 Bft) 100,00 %
05.03.2023 03:36 3,8 C 3,3 C 0,0 C 90 % 1021,0 hPa 0,0 l/m 0 min 0 min 0 W/m 6,4 km/h (2 Bft) 100,00 %
05.03.2023 03:38 3,8 C 3,3 C 0,0 C 90 % 1021,0 hPa 0,0 l/m 0 min 0 min 0 W/m 6,4 km/h (2 Bft) 100,00 %
05.03.2023 03:40 3,8 C 3,3 C 0,0 C 90 % 1021,0 hPa 0,0 l/m 0 min 0 min 0 W/m 6,4 km/h (2 Bft) 100,00 %
05.03.2023 03:42 3,8 C 3,3 C 0,0 C 90 % 1021,0 hPa 0,0 l/m 0 min 0 min 0 W/m 9,7 km/h (2 Bft) 100,00 %
05.03.2023 03:44 3,7 C 3,3 C 0,0 C 90 % 1021,0 hPa 0,0 l/m 0 min 0 min 0 W/m 12,9 km/h (3 Bft) 100,00 %
05.03.2023 03:46 3,7 C 3,3 C 0,0 C 90 % 1021,0 hPa 0,0 l/m 0 min 0 min 0 W/m 12,9 km/h (3 Bft) 95,74 %
05.03.2023 03:48 3,7 C 3,3 C 0,0 C 90 % 1021,0 hPa 0,0 l/m 0 min 0 min 0 W/m 6,4 km/h (2 Bft) 100,00 %
05.03.2023 03:50 3,7 C 3,3 C 0,0 C 90 % 1021,0 hPa 0,0 l/m 0 min 0 min 0 W/m 9,7 km/h (2 Bft) 93,62 %
05.03.2023 03:52 3,7 C 3,3 C 0,0 C 90 % 1021,0 hPa 0,0 l/m 0 min 0 min 0 W/m 12,9 km/h (3 Bft) 100,00 %
05.03.2023 03:54 3,7 C 3,3 C 0,0 C 90 % 1020,9 hPa 0,0 l/m 0 min 0 min 0 W/m 9,7 km/h (2 Bft) 95,65 %
05.03.2023 03:56 3,6 C 2,8 C 0,0 C 90 % 1020,9 hPa 0,0 l/m 0 min 0 min 0 W/m 9,7 km/h (2 Bft) 96,88 %
05.03.2023 04:02 3,6 C 2,8 C 0,0 C 90 % 1020,8 hPa 0,0 l/m 0 min 5 min 0 W/m 6,4 km/h (2 Bft) 100,00 %
05.03.2023 04:04 3,6 C 2,8 C 0,0 C 90 % 1020,8 hPa 0,0 l/m 0 min 2 min 0 W/m 6,4 km/h (2 Bft) 97,87 %
05.03.2023 04:06 3,7 C 2,8 C 0,0 C 90 % 1020,7 hPa 0,0 l/m 0 min 2 min 0 W/m 12,9 km/h (3 Bft) 97,83 %
05.03.2023 04:08 3,6 C 2,8 C -0,6 C 90 % 1020,7 hPa 0,0 l/m 0 min 2 min 0 W/m 9,7 km/h (2 Bft) 97,87 %
05.03.2023 04:10 3,6 C 2,8 C -0,6 C 90 % 1020,7 hPa 0,0 l/m 0 min 2 min 0 W/m 3,2 km/h (1 Bft) 91,43 %
05.03.2023 04:12 3,6 C 2,8 C -0,6 C 90 % 1020,7 hPa 0,0 l/m 0 min 2 min 0 W/m 3,2 km/h (1 Bft) 97,87 %
05.03.2023 04:14 3,6 C 2,8 C -0,6 C 90 % 1020,6 hPa 0,0 l/m 0 min 0 min 0 W/m 3,2 km/h (1 Bft) 91,49 %
05.03.2023 04:16 3,6 C 2,8 C -0,6 C 90 % 1020,6 hPa 0,0 l/m 0 min 0 min 0 W/m 3,2 km/h (1 Bft) 93,62 %
05.03.2023 04:18 3,6 C 2,8 C -0,6 C 90 % 1020,6 hPa 0,0 l/m 0 min 0 min 0 W/m 6,4 km/h (2 Bft) 93,62 %
05.03.2023 04:20 3,6 C 2,8 C -0,6 C 91 % 1020,6 hPa 0,0 l/m 0 min 0 min 0 W/m 3,2 km/h (1 Bft) 92,73 %
05.03.2023 04:22 3,6 C 2,8 C -0,6 C 91 % 1020,5 hPa 0,0 l/m 0 min 0 min 0 W/m 3,2 km/h (1 Bft) 89,36 %
05.03.2023 04:24 3,6 C 2,8 C -0,6 C 91 % 1020,5 hPa 0,0 l/m 0 min 0 min 0 W/m 3,2 km/h (1 Bft) 93,62 %
05.03.2023 04:26 3,5 C 2,8 C -0,6 C 91 % 1020,5 hPa 0,0 l/m 0 min 0 min 0 W/m 0,0 km/h (0 Bft) 95,65 %
05.03.2023 04:28 3,5 C 2,8 C -0,6 C 91 % 1020,4 hPa 0,0 l/m 0 min 0 min 0 W/m 3,2 km/h (1 Bft) 93,62 %
05.03.2023 04:30 3,5 C 2,8 C -0,6 C 91 % 1020,4 hPa 0,0 l/m 0 min 0 min 0 W/m 3,2 km/h (1 Bft) 95,74 %
05.03.2023 04:32 3,5 C 2,8 C -0,6 C 91 % 1020,4 hPa 0,0 l/m 0 min 0 min 0 W/m 3,2 km/h (1 Bft) 95,74 %
05.03.2023 04:34 3,5 C 2,8 C -0,6 C 91 % 1020,5 hPa 0,0 l/m 0 min 0 min 0 W/m 3,2 km/h (1 Bft) 96,00 %
05.03.2023 04:36 3,5 C 2,8 C -0,6 C 91 % 1020,4 hPa 0,0 l/m 0 min 0 min 0 W/m 3,2 km/h (1 Bft) 95,24 %
05.03.2023 04:38 3,5 C 2,8 C -0,6 C 91 % 1020,4 hPa 0,0 l/m 0 min 0 min 0 W/m 3,2 km/h (1 Bft) 93,48 %
05.03.2023 04:40 3,4 C 2,8 C -0,6 C 91 % 1020,3 hPa 0,0 l/m 0 min 0 min 0 W/m 3,2 km/h (1 Bft) 95,74 %
05.03.2023 04:42 3,4 C 2,8 C -0,6 C 91 % 1020,4 hPa 0,0 l/m 0 min 0 min 0 W/m 3,2 km/h (1 Bft) 95,74 %
05.03.2023 04:44 3,4 C 2,8 C -0,6 C 91 % 1020,3 hPa 0,0 l/m 0 min 0 min 0 W/m 3,2 km/h (1 Bft) 93,62 %
05.03.2023 04:46 3,4 C 2,8 C -0,6 C 91 % 1020,2 hPa 0,0 l/m 0 min 0 min 0 W/m 3,2 km/h (1 Bft) 98,08 %
05.03.2023 04:48 3,4 C 2,8 C -0,6 C 92 % 1020,2 hPa 0,0 l/m 0 min 0 min 0 W/m 3,2 km/h (1 Bft) 97,87 %
05.03.2023 04:50 3,4 C 2,8 C -0,6 C 92 % 1020,2 hPa 0,0 l/m 0 min 0 min 0 W/m 3,2 km/h (1 Bft) 100,00 %
05.03.2023 04:52 3,4 C 2,8 C -0,6 C 92 % 1020,1 hPa 0,0 l/m 0 min 0 min 0 W/m 12,9 km/h (3 Bft) 100,00 %
05.03.2023 04:54 3,4 C 2,8 C -0,6 C 92 % 1020,2 hPa 0,0 l/m 0 min 0 min 0 W/m 6,4 km/h (2 Bft) 100,00 %
05.03.2023 04:56 3,4 C 2,8 C -0,6 C 92 % 1020,2 hPa 0,0 l/m 0 min 0 min 0 W/m 6,4 km/h (2 Bft) 97,87 %
05.03.2023 04:58 3,4 C 2,8 C -0,6 C 92 % 1020,1 hPa 0,0 l/m 0 min 0 min 0 W/m 3,2 km/h (1 Bft) 100,00 %
05.03.2023 05:00 3,4 C 2,8 C -0,6 C 92 % 1020,1 hPa 0,0 l/m 0 min 0 min 0 W/m 3,2 km/h (1 Bft) 100,00 %
05.03.2023 05:02 3,3 C 2,8 C -0,6 C 92 % 1020,1 hPa 0,0 l/m 0 min 0 min 0 W/m 6,4 km/h (2 Bft) 100,00 %
05.03.2023 05:04 3,3 C 2,8 C -0,6 C 92 % 1020,0 hPa 0,0 l/m 0 min 0 min 0 W/m 3,2 km/h (1 Bft) 97,87 %
05.03.2023 05:06 3,3 C 2,8 C -0,6 C 92 % 1020,0 hPa 0,0 l/m 0 min 0 min 0 W/m 6,4 km/h (2 Bft) 97,44 %
05.03.2023 05:08 3,3 C 2,8 C -0,6 C 92 % 1020,0 hPa 0,0 l/m 0 min 0 min 0 W/m 6,4 km/h (2 Bft) 100,00 %
05.03.2023 05:10 3,3 C 2,8 C -0,6 C 92 % 1020,0 hPa 0,0 l/m 0 min 0 min 0 W/m 6,4 km/h (2 Bft) 100,00 %
05.03.2023 05:12 3,3 C 2,8 C -0,6 C 92 % 1019,9 hPa 0,0 l/m 0 min 0 min 0 W/m 3,2 km/h (1 Bft) 100,00 %
05.03.2023 05:14 3,3 C 2,8 C -0,6 C 92 % 1020,0 hPa 0,0 l/m 0 min 0 min 0 W/m 3,2 km/h (1 Bft) 100,00 %
05.03.2023 05:16 3,3 C 2,8 C -0,6 C 92 % 1019,9 hPa 0,0 l/m 0 min 0 min 0 W/m 6,4 km/h (2 Bft) 100,00 %
05.03.2023 05:18 3,3 C 2,8 C -0,6 C 92 % 1019,8 hPa 0,0 l/m 0 min 0 min 0 W/m 3,2 km/h (1 Bft) 97,87 %
05.03.2023 05:20 3,3 C 2,8 C -0,6 C 92 % 1019,9 hPa 0,0 l/m 0 min 0 min 0 W/m 3,2 km/h (1 Bft) 97,87 %
05.03.2023 05:22 3,3 C 2,8 C -0,6 C 92 % 1019,9 hPa 0,0 l/m 0 min 0 min 0 W/m 3,2 km/h (1 Bft) 100,00 %
05.03.2023 05:24 3,3 C 2,8 C -0,6 C 92 % 1019,9 hPa 0,0 l/m 0 min 0 min 0 W/m 6,4 km/h (2 Bft) 100,00 %
05.03.2023 05:26 3,3 C 2,8 C -0,6 C 92 % 1019,8 hPa 0,0 l/m 0 min 0 min 0 W/m 6,4 km/h (2 Bft) 100,00 %
05.03.2023 05:28 3,3 C 2,8 C -0,6 C 92 % 1019,9 hPa 0,0 l/m 0 min 0 min 0 W/m 6,4 km/h (2 Bft) 100,00 %
05.03.2023 05:30 3,3 C 2,8 C -0,6 C 92 % 1019,8 hPa 0,0 l/m 0 min 0 min 0 W/m 6,4 km/h (2 Bft) 97,83 %
05.03.2023 05:32 3,3 C 2,8 C -0,6 C 92 % 1019,8 hPa 0,0 l/m 0 min 0 min 0 W/m 3,2 km/h (1 Bft) 97,87 %
05.03.2023 05:34 3,3 C 2,8 C -0,6 C 92 % 1019,8 hPa 0,0 l/m 0 min 0 min 0 W/m 6,4 km/h (2 Bft) 100,00 %
05.03.2023 05:36 3,2 C 2,8 C -0,6 C 92 % 1019,7 hPa 0,0 l/m 0 min 0 min 0 W/m 3,2 km/h (1 Bft) 97,87 %
05.03.2023 05:38 3,2 C 2,8 C -0,6 C 92 % 1019,7 hPa 0,0 l/m 0 min 0 min 0 W/m 3,2 km/h (1 Bft) 97,22 %
05.03.2023 05:40 3,2 C 2,8 C -0,6 C 92 % 1019,7 hPa 0,0 l/m 0 min 0 min 0 W/m 6,4 km/h (2 Bft) 98,18 %
05.03.2023 05:42 3,2 C 2,8 C -0,6 C 92 % 1019,7 hPa 0,0 l/m 0 min 0 min 0 W/m 3,2 km/h (1 Bft) 97,87 %
05.03.2023 05:44 3,2 C 2,8 C -0,6 C 92 % 1019,7 hPa 0,0 l/m 0 min 0 min 0 W/m 6,4 km/h (2 Bft) 97,92 %
05.03.2023 05:46 3,2 C 2,8 C -0,6 C 92 % 1019,6 hPa 0,0 l/m 0 min 0 min 0 W/m 3,2 km/h (1 Bft) 97,37 %
05.03.2023 05:48 3,2 C 2,8 C -0,6 C 92 % 1019,7 hPa 0,0 l/m 0 min 0 min 0 W/m 3,2 km/h (1 Bft) 96,23 %
05.03.2023 05:50 3,2 C 2,8 C -0,6 C 92 % 1019,7 hPa 0,0 l/m 0 min 0 min 0 W/m 0,0 km/h (0 Bft) 98,00 %
05.03.2023 05:52 3,2 C 2,8 C -0,6 C 92 % 1019,6 hPa 0,0 l/m 0 min 0 min 0 W/m 0,0 km/h (0 Bft) 100,00 %
05.03.2023 05:54 3,2 C 2,8 C -0,6 C 92 % 1019,6 hPa 0,0 l/m 0 min 0 min 0 W/m 0,0 km/h (0 Bft) 95,74 %
05.03.2023 05:56 3,2 C 2,8 C -0,6 C 92 % 1019,6 hPa 0,0 l/m 0 min 0 min 0 W/m 0,0 km/h (0 Bft) 97,83 %
05.03.2023 05:58 3,2 C 2,8 C -0,6 C 92 % 1019,6 hPa 0,0 l/m 0 min 0 min 0 W/m 0,0 km/h (0 Bft) 93,75 %
05.03.2023 06:00 3,2 C 2,8 C -0,6 C 92 % 1019,5 hPa 0,0 l/m 0 min 0 min 0 W/m 0,0 km/h (0 Bft) 97,87 %
05.03.2023 06:02 3,2 C 2,8 C -0,6 C 92 % 1019,5 hPa 0,0 l/m 0 min 0 min 0 W/m 0,0 km/h (0 Bft) 97,87 %
05.03.2023 06:04 3,2 C 2,8 C -0,6 C 92 % 1019,4 hPa 0,0 l/m 0 min 0 min 0 W/m 0,0 km/h (0 Bft) 97,87 %
05.03.2023 06:07 3,2 C 2,8 C -0,6 C 92 % 1019,3 hPa 0,0 l/m 0 min 0 min 0 W/m 6,4 km/h (2 Bft) 98,61 %
05.03.2023 06:08 3,2 C 2,8 C -0,6 C 92 % 1019,3 hPa 0,0 l/m 0 min 0 min 0 W/m 3,2 km/h (1 Bft) 100,00 %
05.03.2023 06:12 3,1 C 2,8 C -0,6 C 92 % 1019,2 hPa 0,0 l/m 0 min 0 min 0 W/m 3,2 km/h (1 Bft) 100,00 %
05.03.2023 06:14 3,1 C 2,8 C -0,6 C 92 % 1019,2 hPa 0,0 l/m 0 min 0 min 0 W/m 6,4 km/h (2 Bft) 100,00 %
05.03.2023 06:16 3,1 C 2,8 C -0,6 C 92 % 1019,3 hPa 0,0 l/m 0 min 0 min 0 W/m 3,2 km/h (1 Bft) 100,00 %
05.03.2023 06:18 3,2 C 2,8 C -0,6 C 92 % 1019,3 hPa 0,0 l/m 0 min 0 min 0 W/m 3,2 km/h (1 Bft) 97,87 %
05.03.2023 06:20 3,2 C 2,8 C -0,6 C 92 % 1019,3 hPa 0,0 l/m 0 min 0 min 0 W/m 6,4 km/h (2 Bft) 100,00 %
05.03.2023 06:22 3,2 C 2,8 C -0,6 C 92 % 1019,3 hPa 0,0 l/m 0 min 0 min 0 W/m 0,0 km/h (0 Bft) 97,87 %
05.03.2023 06:24 3,2 C 2,8 C -0,6 C 92 % 1019,3 hPa 0,0 l/m 0 min 0 min 0 W/m 0,0 km/h (0 Bft) 95,74 %
05.03.2023 06:26 3,2 C 2,8 C -0,6 C 92 % 1019,3 hPa 0,0 l/m 0 min 0 min 0 W/m 0,0 km/h (0 Bft) 97,87 %
05.03.2023 06:28 3,2 C 2,8 C -0,6 C 92 % 1019,3 hPa 0,0 l/m 0 min 0 min 0 W/m 6,4 km/h (2 Bft) 97,87 %
05.03.2023 06:30 3,2 C 2,8 C -0,6 C 92 % 1019,4 hPa 0,0 l/m 0 min 0 min 0 W/m 3,2 km/h (1 Bft) 97,83 %
05.03.2023 06:32 3,2 C 2,8 C -0,6 C 92 % 1019,3 hPa 0,0 l/m 0 min 0 min 0 W/m 3,2 km/h (1 Bft) 97,87 %
05.03.2023 06:34 3,2 C 2,8 C -0,6 C 92 % 1019,3 hPa 0,0 l/m 0 min 0 min 0 W/m 3,2 km/h (1 Bft) 70,21 %
05.03.2023 06:36 3,2 C 2,8 C -0,6 C 92 % 1019,3 hPa 0,0 l/m 0 min 0 min 0 W/m 3,2 km/h (1 Bft) 52,63 %
05.03.2023 06:38 3,2 C 2,8 C -0,6 C 92 % 1019,4 hPa 0,0 l/m 0 min 0 min 0 W/m 3,2 km/h (1 Bft) 97,87 %
05.03.2023 06:40 3,2 C 2,8 C -0,6 C 92 % 1019,4 hPa 0,0 l/m 0 min 0 min 0 W/m 6,4 km/h (2 Bft) 93,62 %
05.03.2023 06:42 3,2 C 2,8 C -0,6 C 92 % 1019,3 hPa 0,0 l/m 0 min 0 min 0 W/m 6,4 km/h (2 Bft) 97,83 %
05.03.2023 06:44 3,2 C 2,8 C -0,6 C 92 % 1019,3 hPa 0,0 l/m 0 min 0 min 0 W/m 3,2 km/h (1 Bft) 97,87 %
05.03.2023 06:46 3,2 C 2,8 C -0,6 C 92 % 1019,3 hPa 0,0 l/m 0 min 0 min 0 W/m 3,2 km/h (1 Bft) 95,74 %
05.03.2023 06:48 3,2 C 2,8 C -0,6 C 92 % 1019,2 hPa 0,0 l/m 0 min 0 min 0 W/m 0,0 km/h (0 Bft) 95,74 %
05.03.2023 06:50 3,2 C 2,8 C -0,6 C 92 % 1019,2 hPa 0,0 l/m 0 min 0 min 0 W/m 3,2 km/h (1 Bft) 97,87 %
05.03.2023 06:52 3,2 C 2,2 C -0,6 C 92 % 1019,3 hPa 0,0 l/m 0 min 0 min 0 W/m 0,0 km/h (0 Bft) 97,87 %
05.03.2023 06:54 3,2 C 2,2 C -0,6 C 92 % 1019,2 hPa 0,0 l/m 0 min 0 min 0 W/m 0,0 km/h (0 Bft) 97,83 %
05.03.2023 06:56 3,2 C 2,2 C -0,6 C 92 % 1019,3 hPa 0,0 l/m 0 min 0 min 0 W/m 0,0 km/h (0 Bft) 97,87 %
05.03.2023 06:58 3,2 C 2,2 C -0,6 C 92 % 1019,3 hPa 0,0 l/m 0 min 0 min 0 W/m 0,0 km/h (0 Bft) 95,74 %
05.03.2023 07:00 3,1 C 2,2 C -0,6 C 92 % 1019,2 hPa 0,0 l/m 0 min 0 min 0 W/m 0,0 km/h (0 Bft) 97,87 %
05.03.2023 07:02 3,1 C 2,2 C -0,6 C 92 % 1019,1 hPa 0,0 l/m 0 min 0 min 0 W/m 0,0 km/h (0 Bft) 97,87 %
05.03.2023 07:04 3,1 C 2,2 C -0,6 C 92 % 1019,1 hPa 0,0 l/m 0 min 0 min 0 W/m 0,0 km/h (0 Bft) 100,00 %
05.03.2023 07:06 3,1 C 2,2 C -0,6 C 92 % 1019,2 hPa 0,0 l/m 0 min 0 min 0 W/m 0,0 km/h (0 Bft) 98,28 %
05.03.2023 07:08 3,1 C 2,2 C -0,6 C 92 % 1019,2 hPa 0,0 l/m 0 min 0 min 0 W/m 0,0 km/h (0 Bft) 100,00 %
05.03.2023 07:10 3,1 C 2,2 C -0,6 C 92 % 1019,2 hPa 0,0 l/m 0 min 0 min 0 W/m 3,2 km/h (1 Bft) 97,87 %
05.03.2023 07:12 3,1 C 2,2 C -0,6 C 92 % 1019,3 hPa 0,0 l/m 0 min 0 min 0 W/m 9,7 km/h (2 Bft) 97,87 %
05.03.2023 07:14 3,1 C 2,2 C -0,6 C 92 % 1019,2 hPa 0,0 l/m 0 min 0 min 0 W/m 0,0 km/h (0 Bft) 91,49 %
05.03.2023 07:16 3,1 C 2,2 C -0,6 C 92 % 1019,3 hPa 0,0 l/m 0 min 0 min 0 W/m 3,2 km/h (1 Bft) 95,74 %
05.03.2023 07:18 3,1 C 2,2 C -0,6 C 92 % 1019,3 hPa 0,0 l/m 0 min 0 min 0 W/m 3,2 km/h (1 Bft) 97,87 %
05.03.2023 07:20 3,1 C 2,2 C -0,6 C 92 % 1019,2 hPa 0,0 l/m 0 min 0 min 0 W/m 3,2 km/h (1 Bft) 97,87 %
05.03.2023 07:22 3,1 C 2,8 C -0,6 C 92 % 1019,2 hPa 0,0 l/m 0 min 0 min 0 W/m 6,4 km/h (2 Bft) 97,83 %
05.03.2023 07:24 3,1 C 2,8 C -0,6 C 92 % 1019,2 hPa 0,0 l/m 0 min 0 min 1 W/m 3,2 km/h (1 Bft) 95,74 %
05.03.2023 07:26 3,1 C 2,8 C -0,6 C 92 % 1019,2 hPa 0,0 l/m 0 min 0 min 5 W/m 3,2 km/h (1 Bft) 95,74 %
05.03.2023 07:28 3,1 C 2,8 C -0,6 C 92 % 1019,2 hPa 0,0 l/m 0 min 0 min 5 W/m 3,2 km/h (1 Bft) 93,62 %
05.03.2023 07:30 3,1 C 2,8 C -0,6 C 92 % 1019,2 hPa 0,0 l/m 0 min 0 min 6 W/m 3,2 km/h (1 Bft) 55,81 %
05.03.2023 07:32 3,0 C 2,8 C -0,6 C 92 % 1019,1 hPa 0,0 l/m 0 min 0 min 7 W/m 0,0 km/h (0 Bft) 91,49 %
05.03.2023 07:34 3,1 C 2,8 C -0,6 C 92 % 1019,1 hPa 0,0 l/m 0 min 0 min 9 W/m 6,4 km/h (2 Bft) 95,74 %
05.03.2023 07:36 3,1 C 2,8 C -0,6 C 92 % 1019,1 hPa 0,0 l/m 0 min 0 min 9 W/m 3,2 km/h (1 Bft) 95,65 %
05.03.2023 07:38 3,1 C 2,8 C -0,6 C 92 % 1019,1 hPa 0,0 l/m 0 min 0 min 11 W/m 6,4 km/h (2 Bft) 95,74 %
05.03.2023 07:40 3,1 C 2,8 C -0,6 C 92 % 1019,1 hPa 0,0 l/m 0 min 0 min 12 W/m 3,2 km/h (1 Bft) 95,74 %
05.03.2023 07:42 3,1 C 2,8 C -0,6 C 92 % 1019,1 hPa 0,0 l/m 0 min 0 min 14 W/m 6,4 km/h (2 Bft) 95,74 %
05.03.2023 07:44 3,1 C 2,8 C -0,6 C 92 % 1019,1 hPa 0,0 l/m 0 min 0 min 14 W/m 3,2 km/h (1 Bft) 95,74 %
05.03.2023 07:46 3,1 C 2,8 C -0,6 C 92 % 1019,0 hPa 0,0 l/m 0 min 0 min 14 W/m 3,2 km/h (1 Bft) 93,62 %
05.03.2023 07:48 3,1 C 2,8 C -0,6 C 92 % 1019,0 hPa 0,0 l/m 0 min 0 min 14 W/m 3,2 km/h (1 Bft) 93,48 %
05.03.2023 07:50 3,1 C 2,8 C -0,6 C 92 % 1019,0 hPa 0,0 l/m 0 min 0 min 14 W/m 6,4 km/h (2 Bft) 95,74 %
05.03.2023 07:52 3,1 C 2,8 C -0,6 C 92 % 1019,0 hPa 0,0 l/m 0 min 0 min 16 W/m 3,2 km/h (1 Bft) 95,74 %
05.03.2023 07:54 3,1 C 2,8 C -0,6 C 92 % 1019,0 hPa 0,0 l/m 0 min 0 min 17 W/m 6,4 km/h (2 Bft) 97,87 %
05.03.2023 07:56 3,1 C 2,8 C -0,6 C 92 % 1019,0 hPa 0,0 l/m 0 min 0 min 19 W/m 3,2 km/h (1 Bft) 97,87 %
05.03.2023 07:58 3,2 C 2,8 C -0,6 C 92 % 1019,0 hPa 0,0 l/m 0 min 0 min 19 W/m 3,2 km/h (1 Bft) 97,87 %
05.03.2023 08:00 3,2 C 2,8 C -0,6 C 92 % 1019,0 hPa 0,0 l/m 0 min 0 min 19 W/m 3,2 km/h (1 Bft) 97,87 %
05.03.2023 08:02 3,2 C 2,8 C -0,6 C 92 % 1019,0 hPa 0,0 l/m 0 min 0 min 19 W/m 3,2 km/h (1 Bft) 97,83 %
05.03.2023 08:04 3,2 C 2,8 C -0,6 C 92 % 1019,0 hPa 0,0 l/m 0 min 0 min 20 W/m 3,2 km/h (1 Bft) 97,87 %
05.03.2023 08:06 3,2 C 2,8 C -0,6 C 92 % 1019,0 hPa 0,0 l/m 0 min 0 min 22 W/m 3,2 km/h (1 Bft) 96,61 %
05.03.2023 08:08 3,2 C 2,8 C -0,6 C 92 % 1019,0 hPa 0,0 l/m 0 min 0 min 24 W/m 3,2 km/h (1 Bft) 100,00 %
05.03.2023 08:10 3,2 C 2,8 C -0,6 C 92 % 1019,0 hPa 0,0 l/m 0 min 0 min 26 W/m 3,2 km/h (1 Bft) 100,00 %
05.03.2023 08:12 3,2 C 2,8 C 0,0 C 92 % 1019,0 hPa 0,0 l/m 0 min 0 min 27 W/m 3,2 km/h (1 Bft) 100,00 %
05.03.2023 08:14 3,3 C 2,8 C 0,0 C 92 % 1018,9 hPa 0,0 l/m 0 min 0 min 28 W/m 0,0 km/h (0 Bft) 97,87 %
05.03.2023 08:16 3,3 C 2,8 C 0,0 C 92 % 1018,9 hPa 0,0 l/m 0 min 0 min 28 W/m 6,4 km/h (2 Bft) 100,00 %
05.03.2023 08:21 3,3 C 2,8 C 0,0 C 92 % 1018,9 hPa 0,0 l/m 0 min 0 min 27 W/m 6,4 km/h (2 Bft) 98,15 %
05.03.2023 08:22 3,3 C 2,8 C 0,0 C 92 % 1018,9 hPa 0,0 l/m 0 min 0 min 26 W/m 3,2 km/h (1 Bft) 87,50 %
05.03.2023 08:24 3,3 C 2,8 C 0,0 C 92 % 1018,9 hPa 0,0 l/m 0 min 0 min 27 W/m 3,2 km/h (1 Bft) 95,74 %
05.03.2023 08:26 3,3 C 2,8 C 0,0 C 92 % 1018,9 hPa 0,0 l/m 0 min 0 min 27 W/m 3,2 km/h (1 Bft) 97,87 %
05.03.2023 08:28 3,3 C 2,8 C 0,0 C 92 % 1018,9 hPa 0,0 l/m 0 min 0 min 26 W/m 3,2 km/h (1 Bft) 97,83 %
05.03.2023 08:30 3,3 C 2,8 C 0,0 C 92 % 1018,9 hPa 0,0 l/m 0 min 0 min 26 W/m 3,2 km/h (1 Bft) 97,87 %
05.03.2023 08:32 3,3 C 2,8 C 0,0 C 92 % 1018,9 hPa 0,0 l/m 0 min 0 min 28 W/m 3,2 km/h (1 Bft) 97,87 %
05.03.2023 08:34 3,3 C 2,8 C 0,0 C 92 % 1018,9 hPa 0,0 l/m 0 min 0 min 29 W/m 12,9 km/h (3 Bft) 100,00 %
05.03.2023 08:36 3,3 C 3,3 C 0,0 C 92 % 1018,8 hPa 0,0 l/m 0 min 0 min 33 W/m 12,9 km/h (3 Bft) 97,87 %
05.03.2023 08:38 3,4 C 3,3 C 0,0 C 92 % 1018,8 hPa 0,0 l/m 0 min 0 min 35 W/m 6,4 km/h (2 Bft) 100,00 %
05.03.2023 08:40 3,4 C 3,3 C 0,0 C 92 % 1018,8 hPa 0,0 l/m 0 min 0 min 38 W/m 3,2 km/h (1 Bft) 95,74 %
05.03.2023 08:42 3,4 C 3,3 C 0,0 C 92 % 1018,8 hPa 0,0 l/m 0 min 0 min 42 W/m 3,2 km/h (1 Bft) 97,83 %
05.03.2023 08:44 3,4 C 3,3 C 0,0 C 92 % 1018,8 hPa 0,0 l/m 0 min 0 min 42 W/m 6,4 km/h (2 Bft) 93,62 %
05.03.2023 08:46 3,4 C 3,3 C 0,0 C 92 % 1018,8 hPa 0,0 l/m 0 min 0 min 46 W/m 3,2 km/h (1 Bft) 89,36 %
05.03.2023 08:48 3,4 C 3,3 C 0,0 C 92 % 1018,8 hPa 0,0 l/m 0 min 0 min 50 W/m 6,4 km/h (2 Bft) 97,87 %
05.03.2023 08:50 3,4 C 3,3 C 0,0 C 92 % 1018,8 hPa 0,0 l/m 0 min 0 min 53 W/m 3,2 km/h (1 Bft) 97,87 %
05.03.2023 08:52 3,5 C 3,3 C 0,0 C 92 % 1018,8 hPa 0,0 l/m 0 min 0 min 53 W/m 6,4 km/h (2 Bft) 97,87 %
05.03.2023 08:54 3,5 C 3,3 C 0,0 C 92 % 1018,8 hPa 0,0 l/m 0 min 0 min 52 W/m 3,2 km/h (1 Bft) 91,30 %
05.03.2023 08:56 3,5 C 3,3 C 0,0 C 92 % 1018,7 hPa 0,0 l/m 0 min 0 min 54 W/m 9,7 km/h (2 Bft) 97,87 %
05.03.2023 08:58 3,6 C 3,3 C 0,0 C 92 % 1018,8 hPa 0,0 l/m 0 min 0 min 56 W/m 6,4 km/h (2 Bft) 97,87 %
05.03.2023 09:00 3,6 C 3,3 C 0,0 C 92 % 1018,8 hPa 0,0 l/m 0 min 0 min 60 W/m 6,4 km/h (2 Bft) 97,87 %
05.03.2023 09:02 3,6 C 3,3 C 0,0 C 92 % 1018,7 hPa 0,0 l/m 0 min 0 min 62 W/m 6,4 km/h (2 Bft) 97,87 %
05.03.2023 09:04 3,6 C 3,3 C 0,0 C 92 % 1018,7 hPa 0,0 l/m 0 min 0 min 65 W/m 9,7 km/h (2 Bft) 97,87 %
05.03.2023 09:06 3,6 C 3,3 C 0,0 C 92 % 1018,7 hPa 0,0 l/m 0 min 0 min 72 W/m 6,4 km/h (2 Bft) 96,55 %
05.03.2023 09:08 3,7 C 3,9 C 0,0 C 92 % 1018,7 hPa 0,0 l/m 0 min 0 min 80 W/m 6,4 km/h (2 Bft) 97,14 %
05.03.2023 09:10 3,7 C 3,9 C 0,0 C 92 % 1018,7 hPa 0,0 l/m 0 min 0 min 87 W/m 6,4 km/h (2 Bft) 95,74 %
05.03.2023 09:12 3,7 C 3,9 C 0,0 C 92 % 1018,7 hPa 0,0 l/m 0 min 0 min 89 W/m 6,4 km/h (2 Bft) 97,87 %
05.03.2023 09:14 3,7 C 3,9 C 0,6 C 92 % 1018,7 hPa 0,0 l/m 0 min 0 min 82 W/m 16,1 km/h (3 Bft) 95,74 %
05.03.2023 09:16 3,8 C 3,9 C 0,6 C 92 % 1018,6 hPa 0,0 l/m 0 min 0 min 80 W/m 9,7 km/h (2 Bft) 95,74 %
05.03.2023 09:18 3,8 C 3,9 C 0,6 C 92 % 1018,6 hPa 0,0 l/m 0 min 0 min 79 W/m 12,9 km/h (3 Bft) 93,62 %
05.03.2023 09:20 3,8 C 3,9 C 0,6 C 92 % 1018,6 hPa 0,0 l/m 0 min 0 min 90 W/m 9,7 km/h (2 Bft) 95,74 %
05.03.2023 09:22 3,8 C 3,9 C 0,6 C 92 % 1018,5 hPa 0,0 l/m 0 min 0 min 96 W/m 6,4 km/h (2 Bft) 95,65 %
05.03.2023 09:24 3,8 C 3,9 C 0,6 C 92 % 1018,4 hPa 0,0 l/m 0 min 0 min 105 W/m 6,4 km/h (2 Bft) 95,74 %
05.03.2023 09:26 3,9 C 3,9 C 0,6 C 92 % 1018,5 hPa 0,0 l/m 0 min 0 min 118 W/m 6,4 km/h (2 Bft) 97,87 %
05.03.2023 09:28 3,9 C 4,4 C 0,6 C 92 % 1018,6 hPa 0,0 l/m 0 min 0 min 130 W/m 12,9 km/h (3 Bft) 97,87 %
05.03.2023 09:30 3,9 C 4,4 C 0,6 C 92 % 1018,5 hPa 0,0 l/m 0 min 0 min 137 W/m 9,7 km/h (2 Bft) 97,87 %
05.03.2023 09:32 4,0 C 4,4 C 0,6 C 92 % 1018,5 hPa 0,0 l/m 0 min 0 min 132 W/m 12,9 km/h (3 Bft) 93,62 %
05.03.2023 09:34 4,1 C 4,4 C 1,1 C 92 % 1018,5 hPa 0,0 l/m 0 min 0 min 138 W/m 12,9 km/h (3 Bft) 95,74 %
05.03.2023 09:36 4,1 C 4,4 C 1,1 C 92 % 1018,5 hPa 0,0 l/m 0 min 0 min 140 W/m 12,9 km/h (3 Bft) 95,65 %
05.03.2023 09:38 4,1 C 4,4 C 1,1 C 92 % 1018,4 hPa 0,0 l/m 0 min 0 min 138 W/m 12,9 km/h (3 Bft) 97,87 %
05.03.2023 09:40 4,1 C 4,4 C 1,1 C 91 % 1018,4 hPa 0,0 l/m 0 min 0 min 133 W/m 6,4 km/h (2 Bft) 100,00 %
05.03.2023 09:42 4,2 C 4,4 C 1,1 C 91 % 1018,4 hPa 0,0 l/m 0 min 0 min 121 W/m 12,9 km/h (3 Bft) 97,87 %
05.03.2023 09:44 4,2 C 4,4 C 1,1 C 91 % 1018,4 hPa 0,0 l/m 0 min 0 min 115 W/m 12,9 km/h (3 Bft) 97,87 %
05.03.2023 09:46 4,2 C 4,4 C 1,1 C 91 % 1018,4 hPa 0,0 l/m 0 min 0 min 113 W/m 9,7 km/h (2 Bft) 95,74 %
05.03.2023 09:48 4,2 C 4,4 C 1,1 C 91 % 1018,4 hPa 0,0 l/m 0 min 0 min 100 W/m 19,3 km/h (3 Bft) 100,00 %
05.03.2023 09:50 4,3 C 4,4 C 0,6 C 91 % 1018,4 hPa 0,0 l/m 0 min 0 min 88 W/m 12,9 km/h (3 Bft) 100,00 %
05.03.2023 09:52 4,2 C 4,4 C 0,6 C 90 % 1018,3 hPa 0,0 l/m 0 min 0 min 110 W/m 12,9 km/h (3 Bft) 100,00 %
05.03.2023 09:54 4,2 C 4,4 C 0,6 C 90 % 1018,4 hPa 0,0 l/m 0 min 0 min 134 W/m 16,1 km/h (3 Bft) 97,87 %
05.03.2023 09:56 4,2 C 4,4 C 0,6 C 90 % 1018,3 hPa 0,0 l/m 0 min 0 min 129 W/m 16,1 km/h (3 Bft) 100,00 %
05.03.2023 09:58 4,2 C 4,4 C 0,6 C 90 % 1018,3 hPa 0,0 l/m 0 min 0 min 122 W/m 9,7 km/h (2 Bft) 93,62 %
05.03.2023 10:00 4,3 C 4,4 C 1,1 C 90 % 1018,3 hPa 0,0 l/m 0 min 0 min 123 W/m 12,9 km/h (3 Bft) 97,92 %
05.03.2023 10:02 4,3 C 4,4 C 0,6 C 90 % 1018,4 hPa 0,0 l/m 0 min 0 min 129 W/m 16,1 km/h (3 Bft) 100,00 %
05.03.2023 10:04 4,3 C 4,4 C 0,6 C 90 % 1018,3 hPa 0,0 l/m 0 min 0 min 117 W/m 16,1 km/h (3 Bft) 100,00 %
05.03.2023 10:06 4,3 C 4,4 C 0,6 C 90 % 1018,3 hPa 0,0 l/m 0 min 0 min 93 W/m 16,1 km/h (3 Bft) 94,92 %
05.03.2023 10:08 4,3 C 4,4 C 0,6 C 90 % 1018,4 hPa 0,0 l/m 0 min 0 min 108 W/m 16,1 km/h (3 Bft) 100,00 %
05.03.2023 10:10 4,3 C 3,9 C 0,6 C 90 % 1018,3 hPa 0,0 l/m 0 min 0 min 88 W/m 16,1 km/h (3 Bft) 95,74 %
05.03.2023 10:12 4,2 C 3,9 C 0,6 C 90 % 1018,3 hPa 0,0 l/m 0 min 0 min 78 W/m 19,3 km/h (3 Bft) 97,96 %
05.03.2023 10:14 4,2 C 3,9 C 0,6 C 90 % 1018,3 hPa 0,0 l/m 0 min 0 min 96 W/m 16,1 km/h (3 Bft) 97,87 %
05.03.2023 10:16 4,1 C 3,9 C 0,6 C 90 % 1018,3 hPa 0,0 l/m 0 min 0 min 112 W/m 9,7 km/h (2 Bft) 97,87 %
05.03.2023 10:18 4,1 C 3,9 C 0,6 C 90 % 1018,3 hPa 0,0 l/m 0 min 0 min 117 W/m 9,7 km/h (2 Bft) 97,87 %
05.03.2023 10:20 4,0 C 3,9 C 0,6 C 90 % 1018,2 hPa 0,0 l/m 0 min 0 min 127 W/m 12,9 km/h (3 Bft) 93,62 %
05.03.2023 10:22 4,0 C 3,9 C 0,6 C 91 % 1018,2 hPa 0,0 l/m 0 min 0 min 154 W/m 12,9 km/h (3 Bft) 91,49 %
05.03.2023 10:24 4,0 C 4,4 C 0,6 C 91 % 1018,1 hPa 0,0 l/m 0 min 0 min 184 W/m 9,7 km/h (2 Bft) 93,48 %
05.03.2023 10:26 4,1 C 4,4 C 0,6 C 91 % 1018,2 hPa 0,0 l/m 0 min 0 min 207 W/m 16,1 km/h (3 Bft) 95,74 %
05.03.2023 10:28 4,1 C 4,4 C 0,6 C 91 % 1018,1 hPa 0,0 l/m 2 min 0 min 219 W/m 12,9 km/h (3 Bft) 97,87 %
05.03.2023 10:30 4,1 C 5,0 C 1,1 C 91 % 1018,0 hPa 0,0 l/m 2 min 0 min 220 W/m 6,4 km/h (2 Bft) 47,50 %
05.03.2023 10:32 4,1 C 5,0 C 1,1 C 91 % 1018,1 hPa 0,0 l/m 0 min 0 min 207 W/m 12,9 km/h (3 Bft) 97,87 %
05.03.2023 10:34 4,2 C 5,0 C 1,1 C 91 % 1018,0 hPa 0,0 l/m 0 min 0 min 194 W/m 16,1 km/h (3 Bft) 97,87 %
05.03.2023 10:36 4,2 C 4,4 C 1,1 C 91 % 1018,0 hPa 0,0 l/m 0 min 0 min 181 W/m 16,1 km/h (3 Bft) 97,87 %
05.03.2023 10:38 4,2 C 4,4 C 1,1 C 91 % 1018,0 hPa 0,0 l/m 0 min 0 min 172 W/m 16,1 km/h (3 Bft) 97,83 %
05.03.2023 10:40 4,2 C 4,4 C 1,1 C 91 % 1018,0 hPa 0,0 l/m 0 min 0 min 170 W/m 16,1 km/h (3 Bft) 95,74 %
05.03.2023 10:42 4,2 C 4,4 C 1,1 C 91 % 1018,0 hPa 0,0 l/m 0 min 0 min 168 W/m 12,9 km/h (3 Bft) 97,87 %
05.03.2023 10:44 4,2 C 4,4 C 1,1 C 91 % 1018,0 hPa 0,0 l/m 0 min 0 min 163 W/m 12,9 km/h (3 Bft) 95,74 %
05.03.2023 10:46 4,2 C 4,4 C 1,1 C 91 % 1018,0 hPa 0,0 l/m 0 min 0 min 155 W/m 12,9 km/h (3 Bft) 95,74 %
05.03.2023 10:48 4,2 C 4,4 C 1,1 C 91 % 1018,0 hPa 0,0 l/m 0 min 0 min 149 W/m 19,3 km/h (3 Bft) 97,87 %
05.03.2023 10:50 4,1 C 4,4 C 1,1 C 91 % 1018,0 hPa 0,0 l/m 0 min 0 min 146 W/m 16,1 km/h (3 Bft) 97,83 %
05.03.2023 10:52 4,1 C 3,9 C 1,1 C 91 % 1018,0 hPa 0,0 l/m 0 min 0 min 145 W/m 16,1 km/h (3 Bft) 97,87 %
05.03.2023 10:54 4,1 C 4,4 C 1,1 C 91 % 1017,9 hPa 0,0 l/m 0 min 0 min 154 W/m 9,7 km/h (2 Bft) 100,00 %
05.03.2023 10:56 4,1 C 4,4 C 1,1 C 91 % 1017,9 hPa 0,0 l/m 0 min 0 min 178 W/m 12,9 km/h (3 Bft) 93,62 %
05.03.2023 10:58 4,2 C 4,4 C 1,1 C 91 % 1018,0 hPa 0,0 l/m 0 min 0 min 192 W/m 9,7 km/h (2 Bft) 97,87 %
05.03.2023 11:00 4,3 C 5,0 C 1,1 C 91 % 1018,0 hPa 0,0 l/m 0 min 0 min 198 W/m 6,4 km/h (2 Bft) 97,87 %
05.03.2023 11:02 4,3 C 5,0 C 1,1 C 91 % 1017,9 hPa 0,0 l/m 0 min 0 min 212 W/m 12,9 km/h (3 Bft) 97,87 %
05.03.2023 11:04 4,4 C 5,0 C 1,1 C 91 % 1017,9 hPa 0,0 l/m 0 min 0 min 219 W/m 12,9 km/h (3 Bft) 97,83 %
05.03.2023 11:06 4,4 C 5,0 C 1,1 C 91 % 1017,9 hPa 0,0 l/m 0 min 0 min 220 W/m 16,1 km/h (3 Bft) 97,87 %
05.03.2023 11:08 4,4 C 5,0 C 1,1 C 91 % 1017,8 hPa 0,0 l/m 0 min 0 min 231 W/m 9,7 km/h (2 Bft) 97,87 %
05.03.2023 11:10 4,4 C 5,0 C 1,7 C 91 % 1017,8 hPa 0,0 l/m 2 min 0 min 246 W/m 12,9 km/h (3 Bft) 100,00 %
05.03.2023 11:12 4,6 C 5,6 C 1,7 C 91 % 1017,7 hPa 0,0 l/m 2 min 0 min 256 W/m 6,4 km/h (2 Bft) 97,87 %
05.03.2023 11:14 4,6 C 5,6 C 1,7 C 91 % 1017,8 hPa 0,0 l/m 2 min 0 min 248 W/m 12,9 km/h (3 Bft) 100,00 %
05.03.2023 11:16 4,7 C 5,6 C 1,7 C 91 % 1017,8 hPa 0,0 l/m 0 min 0 min 235 W/m 6,4 km/h (2 Bft) 97,87 %
05.03.2023 11:18 4,7 C 5,6 C 1,7 C 91 % 1017,8 hPa 0,0 l/m 0 min 0 min 212 W/m 16,1 km/h (3 Bft) 95,65 %
05.03.2023 11:20 4,7 C 5,0 C 1,7 C 91 % 1017,7 hPa 0,0 l/m 0 min 0 min 156 W/m 9,7 km/h (2 Bft) 97,87 %
05.03.2023 11:22 4,7 C 5,0 C 1,7 C 91 % 1017,8 hPa 0,0 l/m 0 min 0 min 188 W/m 9,7 km/h (2 Bft) 95,74 %
05.03.2023 11:24 4,7 C 5,6 C 1,7 C 91 % 1017,7 hPa 0,0 l/m 0 min 0 min 233 W/m 12,9 km/h (3 Bft) 93,62 %
05.03.2023 11:26 4,8 C 5,6 C 1,7 C 91 % 1017,7 hPa 0,0 l/m 0 min 0 min 203 W/m 12,9 km/h (3 Bft) 97,87 %
05.03.2023 11:28 4,8 C 5,6 C 1,7 C 91 % 1017,7 hPa 0,0 l/m 0 min 0 min 182 W/m 3,2 km/h (1 Bft) 97,87 %
05.03.2023 11:30 4,9 C 5,6 C 1,7 C 91 % 1017,6 hPa 0,0 l/m 0 min 0 min 164 W/m 9,7 km/h (2 Bft) 93,48 %
05.03.2023 11:32 4,9 C 5,6 C 1,7 C 90 % 1017,6 hPa 0,0 l/m 0 min 0 min 192 W/m 12,9 km/h (3 Bft) 93,62 %
05.03.2023 11:34 4,9 C 5,6 C 2,2 C 90 % 1017,6 hPa 0,0 l/m 0 min 0 min 203 W/m 19,3 km/h (3 Bft) 95,74 %
05.03.2023 11:36 4,9 C 5,6 C 2,2 C 90 % 1017,6 hPa 0,0 l/m 0 min 0 min 239 W/m 12,9 km/h (3 Bft) 97,87 %
05.03.2023 11:38 5,0 C 6,1 C 2,2 C 90 % 1017,5 hPa 0,0 l/m 0 min 0 min 253 W/m 6,4 km/h (2 Bft) 95,74 %
05.03.2023 11:40 5,1 C 6,1 C 2,2 C 90 % 1017,5 hPa 0,0 l/m 2 min 0 min 261 W/m 12,9 km/h (3 Bft) 95,74 %
05.03.2023 11:42 5,1 C 6,1 C 2,2 C 90 % 1017,5 hPa 0,0 l/m 2 min 0 min 279 W/m 9,7 km/h (2 Bft) 93,62 %
05.03.2023 11:44 5,2 C 6,7 C 2,2 C 90 % 1017,5 hPa 0,0 l/m 2 min 0 min 285 W/m 16,1 km/h (3 Bft) 95,65 %
05.03.2023 11:46 5,3 C 6,7 C 2,8 C 89 % 1017,5 hPa 0,0 l/m 2 min 0 min 292 W/m 6,4 km/h (2 Bft) 95,74 %
05.03.2023 11:48 5,3 C 6,7 C 2,8 C 89 % 1017,4 hPa 0,0 l/m 2 min 0 min 286 W/m 12,9 km/h (3 Bft) 93,62 %
05.03.2023 11:50 5,4 C 6,7 C 2,8 C 89 % 1017,4 hPa 0,0 l/m 2 min 0 min 292 W/m 16,1 km/h (3 Bft) 95,74 %
05.03.2023 11:52 5,4 C 6,7 C 2,8 C 88 % 1017,4 hPa 0,0 l/m 2 min 0 min 268 W/m 12,9 km/h (3 Bft) 95,74 %
05.03.2023 11:54 5,5 C 6,7 C 2,8 C 88 % 1017,4 hPa 0,0 l/m 0 min 0 min 239 W/m 9,7 km/h (2 Bft) 95,74 %
05.03.2023 11:56 5,6 C 6,7 C 2,8 C 88 % 1017,4 hPa 0,0 l/m 0 min 0 min 198 W/m 6,4 km/h (2 Bft) 97,87 %
05.03.2023 11:58 5,6 C 6,1 C 2,8 C 87 % 1017,4 hPa 0,0 l/m 0 min 0 min 163 W/m 6,4 km/h (2 Bft) 95,65 %
05.03.2023 12:00 5,6 C 6,1 C 2,2 C 87 % 1017,3 hPa 0,0 l/m 0 min 0 min 146 W/m 12,9 km/h (3 Bft) 95,74 %
05.03.2023 12:02 5,5 C 5,6 C 2,2 C 86 % 1017,3 hPa 0,0 l/m 0 min 0 min 127 W/m 16,1 km/h (3 Bft) 93,62 %
05.03.2023 12:04 5,5 C 5,6 C 2,2 C 86 % 1017,2 hPa 0,0 l/m 0 min 0 min 120 W/m 6,4 km/h (2 Bft) 97,87 %
05.03.2023 12:07 5,4 C 5,6 C 1,7 C 86 % 1017,2 hPa 0,0 l/m 0 min 0 min 93 W/m 9,7 km/h (2 Bft) 97,14 %
05.03.2023 12:08 5,4 C 5,0 C 1,7 C 86 % 1017,2 hPa 0,0 l/m 0 min 0 min 71 W/m 6,4 km/h (2 Bft) 95,83 %
05.03.2023 12:12 5,4 C 5,0 C 1,7 C 85 % 1017,2 hPa 0,0 l/m 0 min 0 min 52 W/m 9,7 km/h (2 Bft) 98,00 %
05.03.2023 12:14 5,3 C 5,0 C 1,7 C 85 % 1017,2 hPa 0,0 l/m 0 min 0 min 59 W/m 9,7 km/h (2 Bft) 97,87 %
05.03.2023 12:16 5,3 C 5,0 C 1,1 C 85 % 1017,2 hPa 0,0 l/m 0 min 2 min 65 W/m 6,4 km/h (2 Bft) 95,65 %
05.03.2023 12:18 5,3 C 5,0 C 1,1 C 85 % 1017,2 hPa 0,0 l/m 0 min 2 min 75 W/m 12,9 km/h (3 Bft) 95,74 %
05.03.2023 12:20 5,2 C 5,0 C 1,1 C 86 % 1017,2 hPa 0,0 l/m 0 min 2 min 83 W/m 9,7 km/h (2 Bft) 97,87 %
05.03.2023 12:22 5,2 C 5,0 C 1,1 C 86 % 1017,1 hPa 0,0 l/m 0 min 0 min 98 W/m 6,4 km/h (2 Bft) 97,87 %
05.03.2023 12:24 5,2 C 5,0 C 1,1 C 87 % 1017,1 hPa 0,0 l/m 0 min 0 min 130 W/m 12,9 km/h (3 Bft) 97,87 %
05.03.2023 12:26 5,2 C 5,0 C 1,1 C 87 % 1017,1 hPa 0,0 l/m 0 min 0 min 165 W/m 6,4 km/h (2 Bft) 95,74 %
05.03.2023 12:28 5,2 C 5,0 C 1,1 C 88 % 1017,0 hPa 0,0 l/m 0 min 0 min 192 W/m 9,7 km/h (2 Bft) 97,83 %
05.03.2023 12:30 5,2 C 5,0 C 1,7 C 88 % 1017,0 hPa 0,0 l/m 0 min 0 min 202 W/m 9,7 km/h (2 Bft) 95,74 %
05.03.2023 12:32 5,2 C 5,6 C 1,7 C 88 % 1017,0 hPa 0,0 l/m 0 min 0 min 209 W/m 9,7 km/h (2 Bft) 95,74 %
05.03.2023 12:34 5,2 C 5,6 C 1,7 C 89 % 1017,0 hPa 0,0 l/m 0 min 0 min 208 W/m 9,7 km/h (2 Bft) 97,87 %
05.03.2023 12:36 5,2 C 5,6 C 1,7 C 89 % 1017,0 hPa 0,0 l/m 0 min 0 min 194 W/m 6,4 km/h (2 Bft) 97,87 %
05.03.2023 12:38 5,3 C 5,6 C 1,7 C 89 % 1016,9 hPa 0,0 l/m 0 min 0 min 190 W/m 6,4 km/h (2 Bft) 95,74 %
05.03.2023 12:40 5,3 C 5,6 C 2,2 C 89 % 1016,9 hPa 0,0 l/m 0 min 0 min 197 W/m 6,4 km/h (2 Bft) 95,74 %
05.03.2023 12:42 5,3 C 5,6 C 2,2 C 89 % 1016,9 hPa 0,0 l/m 0 min 0 min 203 W/m 19,3 km/h (3 Bft) 95,65 %
05.03.2023 12:44 5,3 C 5,6 C 2,2 C 89 % 1016,9 hPa 0,0 l/m 0 min 0 min 207 W/m 6,4 km/h (2 Bft) 97,87 %
05.03.2023 12:46 5,3 C 5,6 C 2,2 C 89 % 1016,9 hPa 0,0 l/m 0 min 0 min 219 W/m 12,9 km/h (3 Bft) 95,74 %
05.03.2023 12:48 5,3 C 6,1 C 2,2 C 89 % 1016,9 hPa 0,0 l/m 0 min 0 min 235 W/m 9,7 km/h (2 Bft) 97,87 %
05.03.2023 12:50 5,3 C 6,1 C 2,2 C 88 % 1016,9 hPa 0,0 l/m 0 min 0 min 246 W/m 12,9 km/h (3 Bft) 97,87 %
05.03.2023 12:52 5,3 C 6,1 C 2,2 C 88 % 1016,8 hPa 0,0 l/m 0 min 0 min 259 W/m 12,9 km/h (3 Bft) 97,87 %
05.03.2023 12:54 5,3 C 6,1 C 2,2 C 88 % 1016,8 hPa 0,0 l/m 0 min 0 min 266 W/m 16,1 km/h (3 Bft) 97,83 %
05.03.2023 12:56 5,3 C 6,7 C 2,2 C 88 % 1016,7 hPa 0,0 l/m 0 min 0 min 267 W/m 16,1 km/h (3 Bft) 97,87 %
05.03.2023 12:58 5,4 C 6,7 C 2,2 C 87 % 1016,7 hPa 0,0 l/m 0 min 0 min 251 W/m 12,9 km/h (3 Bft) 97,87 %
05.03.2023 13:00 5,4 C 6,7 C 2,8 C 87 % 1016,7 hPa 0,0 l/m 0 min 0 min 244 W/m 9,7 km/h (2 Bft) 97,87 %
05.03.2023 13:02 5,5 C 6,7 C 2,8 C 86 % 1016,6 hPa 0,0 l/m 0 min 0 min 245 W/m 9,7 km/h (2 Bft) 93,62 %
05.03.2023 13:04 5,6 C 6,7 C 2,8 C 86 % 1016,6 hPa 0,0 l/m 0 min 0 min 242 W/m 12,9 km/h (3 Bft) 95,74 %
05.03.2023 13:06 5,6 C 6,7 C 2,8 C 86 % 1016,5 hPa 0,0 l/m 0 min 0 min 246 W/m 9,7 km/h (2 Bft) 98,28 %
05.03.2023 13:08 5,6 C 6,7 C 2,8 C 86 % 1016,5 hPa 0,0 l/m 0 min 0 min 246 W/m 12,9 km/h (3 Bft) 94,29 %
05.03.2023 13:10 5,7 C 6,7 C 2,8 C 85 % 1016,5 hPa 0,0 l/m 0 min 0 min 230 W/m 12,9 km/h (3 Bft) 97,87 %
05.03.2023 13:12 5,7 C 6,1 C 2,2 C 85 % 1016,5 hPa 0,0 l/m 0 min 0 min 206 W/m 12,9 km/h (3 Bft) 97,87 %
05.03.2023 13:14 5,7 C 6,1 C 2,2 C 85 % 1016,5 hPa 0,0 l/m 0 min 0 min 197 W/m 6,4 km/h (2 Bft) 97,87 %
05.03.2023 13:16 5,7 C 6,1 C 2,2 C 84 % 1016,4 hPa 0,0 l/m 0 min 0 min 203 W/m 12,9 km/h (3 Bft) 97,87 %
05.03.2023 13:18 5,8 C 6,1 C 2,2 C 84 % 1016,4 hPa 0,0 l/m 0 min 0 min 196 W/m 12,9 km/h (3 Bft) 97,87 %
05.03.2023 13:20 5,7 C 6,1 C 2,2 C 84 % 1016,3 hPa 0,0 l/m 0 min 0 min 203 W/m 9,7 km/h (2 Bft) 95,74 %
05.03.2023 13:22 5,7 C 6,1 C 2,2 C 84 % 1016,3 hPa 0,0 l/m 0 min 0 min 212 W/m 12,9 km/h (3 Bft) 96,23 %
05.03.2023 13:24 5,7 C 6,1 C 2,8 C 83 % 1016,3 hPa 0,0 l/m 0 min 0 min 204 W/m 6,4 km/h (2 Bft) 97,87 %
05.03.2023 13:26 5,7 C 6,1 C 2,8 C 83 % 1016,3 hPa 0,0 l/m 0 min 0 min 196 W/m 12,9 km/h (3 Bft) 98,00 %
05.03.2023 13:28 5,7 C 6,1 C 2,2 C 83 % 1016,2 hPa 0,0 l/m 0 min 0 min 186 W/m 6,4 km/h (2 Bft) 93,88 %
05.03.2023 13:30 5,8 C 6,1 C 2,8 C 83 % 1016,2 hPa 0,0 l/m 0 min 0 min 191 W/m 9,7 km/h (2 Bft) 100,00 %
05.03.2023 13:32 5,8 C 6,1 C 2,2 C 82 % 1016,1 hPa 0,0 l/m 0 min 0 min 193 W/m 12,9 km/h (3 Bft) 94,34 %
05.03.2023 13:34 5,8 C 6,1 C 2,2 C 82 % 1016,1 hPa 0,0 l/m 0 min 0 min 176 W/m 6,4 km/h (2 Bft) 96,00 %
05.03.2023 13:36 5,8 C 6,1 C 2,2 C 82 % 1016,1 hPa 0,0 l/m 0 min 0 min 168 W/m 9,7 km/h (2 Bft) 95,92 %
05.03.2023 13:38 5,8 C 6,1 C 2,8 C 82 % 1016,0 hPa 0,0 l/m 0 min 0 min 168 W/m 9,7 km/h (2 Bft) 91,43 %
05.03.2023 13:40 5,8 C 6,1 C 2,8 C 82 % 1015,9 hPa 0,0 l/m 0 min 0 min 152 W/m 9,7 km/h (2 Bft) 98,15 %
05.03.2023 13:42 5,9 C 6,1 C 2,2 C 82 % 1015,9 hPa 0,0 l/m 0 min 0 min 131 W/m 6,4 km/h (2 Bft) 97,87 %
05.03.2023 13:44 5,9 C 6,1 C 2,2 C 82 % 1015,9 hPa 0,0 l/m 0 min 0 min 115 W/m 6,4 km/h (2 Bft) 97,96 %
05.03.2023 13:46 5,9 C 6,1 C 2,2 C 82 % 1015,9 hPa 0,0 l/m 0 min 0 min 107 W/m 9,7 km/h (2 Bft) 97,87 %
05.03.2023 13:48 5,9 C 5,6 C 2,2 C 82 % 1015,8 hPa 0,0 l/m 0 min 0 min 105 W/m 9,7 km/h (2 Bft) 97,87 %
05.03.2023 13:50 5,9 C 5,6 C 2,2 C 81 % 1015,8 hPa 0,0 l/m 0 min 0 min 104 W/m 9,7 km/h (2 Bft) 97,87 %
05.03.2023 13:52 5,9 C 5,6 C 2,2 C 81 % 1015,7 hPa 0,0 l/m 0 min 0 min 105 W/m 9,7 km/h (2 Bft) 97,87 %
05.03.2023 13:54 5,8 C 5,6 C 2,2 C 81 % 1015,7 hPa 0,0 l/m 0 min 0 min 100 W/m 9,7 km/h (2 Bft) 95,74 %
05.03.2023 13:56 5,8 C 5,6 C 2,2 C 81 % 1015,7 hPa 0,0 l/m 0 min 0 min 95 W/m 3,2 km/h (1 Bft) 91,30 %
05.03.2023 13:58 5,8 C 5,6 C 2,2 C 81 % 1015,6 hPa 0,0 l/m 0 min 0 min 100 W/m 9,7 km/h (2 Bft) 97,87 %
05.03.2023 14:00 5,8 C 5,6 C 2,2 C 81 % 1015,6 hPa 0,0 l/m 0 min 0 min 108 W/m 9,7 km/h (2 Bft) 97,87 %
05.03.2023 14:02 5,8 C 5,6 C 2,2 C 81 % 1015,6 hPa 0,0 l/m 0 min 0 min 115 W/m 6,4 km/h (2 Bft) 97,87 %
05.03.2023 14:04 5,8 C 5,6 C 2,2 C 81 % 1015,6 hPa 0,0 l/m 0 min 0 min 118 W/m 6,4 km/h (2 Bft) 100,00 %
05.03.2023 14:06 5,8 C 5,6 C 2,2 C 81 % 1015,5 hPa 0,0 l/m 0 min 0 min 127 W/m 9,7 km/h (2 Bft) 100,00 %
05.03.2023 14:08 5,8 C 5,6 C 2,2 C 81 % 1015,5 hPa 0,0 l/m 0 min 0 min 130 W/m 12,9 km/h (3 Bft) 100,00 %
05.03.2023 14:10 5,8 C 5,6 C 2,2 C 81 % 1015,4 hPa 0,0 l/m 0 min 0 min 138 W/m 12,9 km/h (3 Bft) 100,00 %
05.03.2023 14:12 5,8 C 6,1 C 2,2 C 82 % 1015,5 hPa 0,0 l/m 0 min 0 min 162 W/m 9,7 km/h (2 Bft) 100,00 %
05.03.2023 14:14 5,8 C 6,1 C 2,2 C 82 % 1015,4 hPa 0,0 l/m 0 min 0 min 185 W/m 9,7 km/h (2 Bft) 100,00 %
05.03.2023 14:16 5,9 C 6,1 C 2,2 C 82 % 1015,4 hPa 0,0 l/m 0 min 0 min 177 W/m 9,7 km/h (2 Bft) 100,00 %
05.03.2023 14:18 5,9 C 6,1 C 2,2 C 82 % 1015,4 hPa 0,0 l/m 0 min 0 min 172 W/m 6,4 km/h (2 Bft) 97,87 %
05.03.2023 14:20 5,9 C 6,1 C 2,2 C 83 % 1015,3 hPa 0,0 l/m 0 min 0 min 180 W/m 12,9 km/h (3 Bft) 100,00 %
05.03.2023 14:22 5,9 C 6,1 C 2,2 C 83 % 1015,3 hPa 0,0 l/m 0 min 0 min 198 W/m 12,9 km/h (3 Bft) 100,00 %
05.03.2023 14:24 6,0 C 6,7 C 2,8 C 83 % 1015,3 hPa 0,0 l/m 0 min 0 min 216 W/m 12,9 km/h (3 Bft) 97,87 %
05.03.2023 14:26 6,0 C 6,7 C 2,8 C 83 % 1015,2 hPa 0,0 l/m 0 min 0 min 229 W/m 6,4 km/h (2 Bft) 100,00 %
05.03.2023 14:28 6,1 C 7,2 C 2,8 C 82 % 1015,2 hPa 0,0 l/m 2 min 0 min 276 W/m 6,4 km/h (2 Bft) 100,00 %
05.03.2023 14:30 6,1 C 6,7 C 2,8 C 82 % 1015,2 hPa 0,0 l/m 0 min 0 min 230 W/m 12,9 km/h (3 Bft) 100,00 %
05.03.2023 14:32 6,1 C 7,2 C 2,8 C 82 % 1015,2 hPa 0,0 l/m 0 min 0 min 218 W/m 9,7 km/h (2 Bft) 100,00 %
05.03.2023 14:34 6,1 C 6,7 C 2,8 C 82 % 1015,2 hPa 0,0 l/m 0 min 0 min 197 W/m 9,7 km/h (2 Bft) 100,00 %
05.03.2023 14:36 6,2 C 6,7 C 2,8 C 82 % 1015,2 hPa 0,0 l/m 0 min 0 min 178 W/m 6,4 km/h (2 Bft) 100,00 %
05.03.2023 14:38 6,1 C 6,7 C 2,8 C 82 % 1015,1 hPa 0,0 l/m 0 min 0 min 174 W/m 9,7 km/h (2 Bft) 100,00 %
05.03.2023 14:40 6,1 C 6,7 C 2,8 C 81 % 1015,1 hPa 0,0 l/m 0 min 0 min 172 W/m 3,2 km/h (1 Bft) 100,00 %
05.03.2023 14:42 6,1 C 6,7 C 2,8 C 81 % 1015,1 hPa 0,0 l/m 0 min 0 min 173 W/m 12,9 km/h (3 Bft) 98,18 %
05.03.2023 14:44 6,1 C 6,7 C 2,8 C 81 % 1015,1 hPa 0,0 l/m 0 min 0 min 176 W/m 9,7 km/h (2 Bft) 100,00 %
05.03.2023 14:46 6,1 C 6,1 C 2,8 C 81 % 1015,0 hPa 0,0 l/m 0 min 0 min 180 W/m 6,4 km/h (2 Bft) 97,87 %
05.03.2023 14:48 6,1 C 6,7 C 2,8 C 81 % 1015,0 hPa 0,0 l/m 0 min 0 min 184 W/m 3,2 km/h (1 Bft) 95,74 %
05.03.2023 14:50 6,1 C 6,7 C 2,8 C 81 % 1015,0 hPa 0,0 l/m 0 min 0 min 172 W/m 6,4 km/h (2 Bft) 100,00 %
05.03.2023 14:52 6,1 C 6,7 C 2,8 C 81 % 1015,0 hPa 0,0 l/m 0 min 0 min 155 W/m 9,7 km/h (2 Bft) 100,00 %
05.03.2023 14:54 6,1 C 6,7 C 2,8 C 81 % 1014,9 hPa 0,0 l/m 0 min 0 min 149 W/m 6,4 km/h (2 Bft) 97,87 %
05.03.2023 14:56 6,2 C 6,7 C 2,8 C 81 % 1014,9 hPa 0,0 l/m 0 min 0 min 142 W/m 6,4 km/h (2 Bft) 100,00 %
05.03.2023 14:58 6,2 C 6,7 C 2,8 C 81 % 1014,9 hPa 0,0 l/m 0 min 0 min 124 W/m 6,4 km/h (2 Bft) 100,00 %
05.03.2023 15:00 6,2 C 6,1 C 2,8 C 81 % 1014,8 hPa 0,0 l/m 0 min 0 min 114 W/m 9,7 km/h (2 Bft) 100,00 %
05.03.2023 15:02 6,2 C 6,1 C 2,2 C 81 % 1014,8 hPa 0,0 l/m 0 min 0 min 105 W/m 6,4 km/h (2 Bft) 97,87 %
05.03.2023 15:04 6,2 C 6,1 C 2,2 C 81 % 1014,8 hPa 0,0 l/m 0 min 0 min 100 W/m 6,4 km/h (2 Bft) 95,65 %
05.03.2023 15:06 6,2 C 6,1 C 2,2 C 81 % 1014,6 hPa 0,0 l/m 0 min 0 min 100 W/m 3,2 km/h (1 Bft) 100,00 %
05.03.2023 15:08 6,2 C 6,1 C 2,2 C 81 % 1014,6 hPa 0,0 l/m 0 min 0 min 92 W/m 9,7 km/h (2 Bft) 100,00 %
05.03.2023 15:10 6,1 C 5,6 C 2,2 C 80 % 1014,6 hPa 0,0 l/m 0 min 0 min 83 W/m 12,9 km/h (3 Bft) 93,62 %
05.03.2023 15:12 6,1 C 5,6 C 2,2 C 80 % 1014,6 hPa 0,0 l/m 0 min 0 min 78 W/m 9,7 km/h (2 Bft) 97,87 %
05.03.2023 15:14 6,1 C 5,6 C 2,2 C 80 % 1014,6 hPa 0,0 l/m 0 min 0 min 73 W/m 6,4 km/h (2 Bft) 95,74 %
05.03.2023 15:16 6,1 C 5,6 C 2,2 C 81 % 1014,6 hPa 0,0 l/m 0 min 0 min 67 W/m 6,4 km/h (2 Bft) 93,48 %
05.03.2023 15:18 6,0 C 5,6 C 2,2 C 81 % 1014,6 hPa 0,0 l/m 0 min 0 min 64 W/m 6,4 km/h (2 Bft) 95,74 %
05.03.2023 15:20 6,0 C 5,6 C 2,2 C 81 % 1014,6 hPa 0,0 l/m 0 min 0 min 63 W/m 9,7 km/h (2 Bft) 95,74 %
05.03.2023 15:22 5,9 C 5,6 C 2,2 C 81 % 1014,5 hPa 0,0 l/m 0 min 0 min 59 W/m 6,4 km/h (2 Bft) 95,74 %
05.03.2023 15:24 5,9 C 5,6 C 1,7 C 81 % 1014,6 hPa 0,0 l/m 0 min 0 min 56 W/m 3,2 km/h (1 Bft) 91,49 %
05.03.2023 15:26 5,8 C 5,6 C 1,7 C 81 % 1014,5 hPa 0,0 l/m 0 min 0 min 49 W/m 6,4 km/h (2 Bft) 95,74 %
05.03.2023 15:28 5,8 C 5,0 C 1,7 C 81 % 1014,5 hPa 0,0 l/m 0 min 0 min 45 W/m 6,4 km/h (2 Bft) 95,74 %
05.03.2023 15:30 5,8 C 5,0 C 1,7 C 82 % 1014,5 hPa 0,0 l/m 0 min 0 min 49 W/m 12,9 km/h (3 Bft) 93,48 %
05.03.2023 15:32 5,7 C 5,0 C 1,7 C 82 % 1014,5 hPa 0,0 l/m 0 min 0 min 54 W/m 6,4 km/h (2 Bft) 95,74 %
05.03.2023 15:34 5,7 C 5,0 C 1,7 C 82 % 1014,5 hPa 0,0 l/m 0 min 0 min 55 W/m 3,2 km/h (1 Bft) 91,49 %
05.03.2023 15:36 5,7 C 5,0 C 1,7 C 82 % 1014,5 hPa 0,0 l/m 0 min 0 min 51 W/m 6,4 km/h (2 Bft) 91,49 %
05.03.2023 15:38 5,6 C 5,0 C 1,7 C 83 % 1014,4 hPa 0,0 l/m 0 min 0 min 47 W/m 9,7 km/h (2 Bft) 91,49 %
05.03.2023 15:40 5,6 C 5,0 C 1,7 C 83 % 1014,4 hPa 0,0 l/m 0 min 0 min 50 W/m 6,4 km/h (2 Bft) 93,62 %
05.03.2023 15:42 5,6 C 5,0 C 1,7 C 83 % 1014,4 hPa 0,0 l/m 0 min 0 min 57 W/m 3,2 km/h (1 Bft) 91,49 %
05.03.2023 15:44 5,6 C 5,0 C 1,7 C 83 % 1014,3 hPa 0,0 l/m 0 min 0 min 63 W/m 3,2 km/h (1 Bft) 89,13 %
05.03.2023 15:46 5,6 C 5,0 C 1,7 C 84 % 1014,2 hPa 0,0 l/m 0 min 0 min 65 W/m 3,2 km/h (1 Bft) 93,62 %
05.03.2023 15:48 5,6 C 5,0 C 1,7 C 84 % 1014,2 hPa 0,0 l/m 0 min 0 min 63 W/m 6,4 km/h (2 Bft) 94,29 %
05.03.2023 15:50 5,6 C 5,0 C 1,7 C 84 % 1014,1 hPa 0,0 l/m 0 min 0 min 66 W/m 9,7 km/h (2 Bft) 88,00 %
05.03.2023 15:52 5,6 C 5,0 C 1,7 C 84 % 1014,1 hPa 0,0 l/m 0 min 0 min 67 W/m 6,4 km/h (2 Bft) 93,62 %
05.03.2023 15:54 5,6 C 5,0 C 1,7 C 84 % 1014,0 hPa 0,0 l/m 0 min 0 min 65 W/m 3,2 km/h (1 Bft) 91,49 %
05.03.2023 15:56 5,6 C 5,0 C 1,7 C 84 % 1014,0 hPa 0,0 l/m 0 min 0 min 65 W/m 6,4 km/h (2 Bft) 93,62 %
05.03.2023 15:58 5,5 C 5,0 C 1,7 C 84 % 1014,0 hPa 0,0 l/m 0 min 0 min 67 W/m 6,4 km/h (2 Bft) 91,49 %
05.03.2023 16:00 5,5 C 5,0 C 1,7 C 84 % 1013,9 hPa 0,0 l/m 0 min 0 min 69 W/m 3,2 km/h (1 Bft) 93,48 %
05.03.2023 16:02 5,6 C 5,0 C 1,7 C 85 % 1013,9 hPa 0,0 l/m 0 min 0 min 67 W/m 3,2 km/h (1 Bft) 97,87 %
05.03.2023 16:04 5,5 C 5,0 C 1,7 C 84 % 1013,9 hPa 0,0 l/m 0 min 0 min 61 W/m 6,4 km/h (2 Bft) 97,87 %
05.03.2023 16:06 5,4 C 5,0 C 1,7 C 84 % 1013,9 hPa 0,0 l/m 0 min 0 min 63 W/m 9,7 km/h (2 Bft) 96,61 %
05.03.2023 16:08 5,4 C 5,0 C 1,7 C 84 % 1013,8 hPa 0,0 l/m 0 min 0 min 69 W/m 6,4 km/h (2 Bft) 97,14 %
05.03.2023 16:10 5,4 C 5,0 C 1,7 C 84 % 1013,8 hPa 0,0 l/m 0 min 0 min 65 W/m 3,2 km/h (1 Bft) 95,74 %
05.03.2023 16:12 5,4 C 5,0 C 1,7 C 84 % 1013,7 hPa 0,0 l/m 0 min 0 min 62 W/m 3,2 km/h (1 Bft) 100,00 %
05.03.2023 16:14 5,4 C 5,0 C 1,7 C 84 % 1013,7 hPa 0,0 l/m 0 min 0 min 61 W/m 3,2 km/h (1 Bft) 97,83 %
05.03.2023 16:16 5,4 C 5,0 C 1,7 C 84 % 1013,7 hPa 0,0 l/m 0 min 0 min 62 W/m 3,2 km/h (1 Bft) 100,00 %
05.03.2023 16:18 5,4 C 5,0 C 1,7 C 84 % 1013,7 hPa 0,0 l/m 0 min 0 min 65 W/m 6,4 km/h (2 Bft) 97,87 %
05.03.2023 16:20 5,4 C 5,0 C 1,7 C 84 % 1013,7 hPa 0,0 l/m 0 min 0 min 62 W/m 3,2 km/h (1 Bft) 97,87 %
05.03.2023 16:22 5,4 C 5,0 C 1,7 C 84 % 1013,7 hPa 0,0 l/m 0 min 0 min 58 W/m 6,4 km/h (2 Bft) 97,87 %
05.03.2023 16:24 5,4 C 5,0 C 1,7 C 84 % 1013,7 hPa 0,0 l/m 0 min 0 min 55 W/m 3,2 km/h (1 Bft) 100,00 %
05.03.2023 16:26 5,4 C 5,0 C 1,7 C 84 % 1013,7 hPa 0,0 l/m 0 min 0 min 51 W/m 3,2 km/h (1 Bft) 100,00 %
05.03.2023 16:28 5,4 C 5,0 C 1,7 C 84 % 1013,6 hPa 0,0 l/m 0 min 0 min 45 W/m 6,4 km/h (2 Bft) 100,00 %
05.03.2023 16:30 5,4 C 5,0 C 1,7 C 84 % 1013,6 hPa 0,0 l/m 0 min 0 min 44 W/m 3,2 km/h (1 Bft) 100,00 %
05.03.2023 16:32 5,4 C 5,0 C 1,7 C 84 % 1013,5 hPa 0,0 l/m 0 min 0 min 45 W/m 3,2 km/h (1 Bft) 100,00 %
05.03.2023 16:34 5,4 C 5,0 C 1,7 C 84 % 1013,5 hPa 0,0 l/m 0 min 0 min 46 W/m 0,0 km/h (0 Bft) 100,00 %
05.03.2023 16:36 5,4 C 5,0 C 1,7 C 84 % 1013,5 hPa 0,0 l/m 0 min 0 min 46 W/m 3,2 km/h (1 Bft) 97,87 %
05.03.2023 16:38 5,4 C 5,0 C 1,7 C 84 % 1013,5 hPa 0,0 l/m 0 min 0 min 46 W/m 3,2 km/h (1 Bft) 100,00 %
05.03.2023 16:40 5,4 C 5,0 C 1,7 C 85 % 1013,4 hPa 0,0 l/m 0 min 0 min 45 W/m 3,2 km/h (1 Bft) 97,87 %
05.03.2023 16:42 5,4 C 5,0 C 1,7 C 85 % 1013,4 hPa 0,0 l/m 0 min 0 min 42 W/m 6,4 km/h (2 Bft) 100,00 %
05.03.2023 16:44 5,4 C 5,0 C 1,7 C 85 % 1013,4 hPa 0,0 l/m 0 min 0 min 43 W/m 6,4 km/h (2 Bft) 100,00 %
05.03.2023 16:46 5,4 C 5,0 C 1,7 C 84 % 1013,4 hPa 0,0 l/m 0 min 0 min 48 W/m 6,4 km/h (2 Bft) 100,00 %
05.03.2023 16:48 5,4 C 5,0 C 1,7 C 84 % 1013,3 hPa 0,0 l/m 0 min 0 min 49 W/m 6,4 km/h (2 Bft) 100,00 %
05.03.2023 16:50 5,4 C 5,0 C 1,7 C 84 % 1013,3 hPa 0,0 l/m 0 min 0 min 48 W/m 3,2 km/h (1 Bft) 100,00 %
05.03.2023 16:52 5,4 C 5,0 C 1,7 C 85 % 1013,3 hPa 0,0 l/m 0 min 0 min 44 W/m 6,4 km/h (2 Bft) 100,00 %
05.03.2023 16:54 5,4 C 5,0 C 1,7 C 85 % 1013,3 hPa 0,0 l/m 0 min 0 min 39 W/m 6,4 km/h (2 Bft) 95,65 %
05.03.2023 16:56 5,4 C 5,0 C 1,7 C 84 % 1013,3 hPa 0,0 l/m 0 min 0 min 39 W/m 3,2 km/h (1 Bft) 100,00 %
05.03.2023 16:58 5,4 C 5,0 C 1,7 C 85 % 1013,3 hPa 0,0 l/m 0 min 0 min 37 W/m 3,2 km/h (1 Bft) 100,00 %
05.03.2023 17:00 5,4 C 5,0 C 1,7 C 85 % 1013,2 hPa 0,0 l/m 0 min 0 min 33 W/m 6,4 km/h (2 Bft) 100,00 %
05.03.2023 17:02 5,4 C 5,0 C 1,7 C 85 % 1013,2 hPa 0,0 l/m 0 min 0 min 29 W/m 3,2 km/h (1 Bft) 100,00 %
05.03.2023 17:04 5,4 C 5,0 C 1,7 C 85 % 1013,1 hPa 0,0 l/m 0 min 0 min 27 W/m 3,2 km/h (1 Bft) 100,00 %
05.03.2023 17:06 5,4 C 5,0 C 1,7 C 85 % 1013,1 hPa 0,0 l/m 0 min 0 min 24 W/m 0,0 km/h (0 Bft) 100,00 %
05.03.2023 17:08 5,4 C 5,0 C 1,7 C 85 % 1013,1 hPa 0,0 l/m 0 min 0 min 21 W/m 3,2 km/h (1 Bft) 100,00 %
05.03.2023 17:10 5,4 C 5,0 C 1,7 C 85 % 1013,0 hPa 0,0 l/m 0 min 0 min 18 W/m 6,4 km/h (2 Bft) 100,00 %
05.03.2023 17:12 5,3 C 5,0 C 1,7 C 85 % 1013,0 hPa 0,0 l/m 0 min 0 min 18 W/m 3,2 km/h (1 Bft) 93,62 %
05.03.2023 17:14 5,4 C 4,4 C 1,7 C 85 % 1013,0 hPa 0,0 l/m 0 min 0 min 18 W/m 3,2 km/h (1 Bft) 100,00 %
05.03.2023 17:16 5,3 C 4,4 C 1,7 C 85 % 1013,0 hPa 0,0 l/m 0 min 0 min 18 W/m 3,2 km/h (1 Bft) 100,00 %
05.03.2023 17:18 5,3 C 4,4 C 1,1 C 85 % 1013,0 hPa 0,0 l/m 0 min 0 min 19 W/m 6,4 km/h (2 Bft) 100,00 %
05.03.2023 17:20 5,3 C 4,4 C 1,1 C 85 % 1012,9 hPa 0,0 l/m 0 min 0 min 19 W/m 3,2 km/h (1 Bft) 100,00 %
05.03.2023 17:22 5,3 C 4,4 C 1,1 C 85 % 1012,9 hPa 0,0 l/m 0 min 0 min 19 W/m 3,2 km/h (1 Bft) 97,83 %
05.03.2023 17:24 5,3 C 4,4 C 1,1 C 85 % 1012,9 hPa 0,0 l/m 0 min 0 min 21 W/m 3,2 km/h (1 Bft) 100,00 %
05.03.2023 17:26 5,3 C 4,4 C 1,1 C 85 % 1012,8 hPa 0,0 l/m 0 min 0 min 23 W/m 3,2 km/h (1 Bft) 97,87 %
05.03.2023 17:28 5,3 C 4,4 C 1,1 C 85 % 1012,8 hPa 0,0 l/m 0 min 0 min 22 W/m 3,2 km/h (1 Bft) 100,00 %
05.03.2023 17:30 5,3 C 4,4 C 1,1 C 85 % 1012,8 hPa 0,0 l/m 0 min 0 min 20 W/m 3,2 km/h (1 Bft) 97,87 %
05.03.2023 17:32 5,3 C 4,4 C 1,1 C 86 % 1012,8 hPa 0,0 l/m 0 min 0 min 18 W/m 3,2 km/h (1 Bft) 97,87 %
05.03.2023 17:34 5,3 C 4,4 C 1,1 C 86 % 1012,8 hPa 0,0 l/m 0 min 0 min 16 W/m 3,2 km/h (1 Bft) 93,62 %
05.03.2023 17:36 5,2 C 4,4 C 1,1 C 86 % 1012,7 hPa 0,0 l/m 0 min 0 min 13 W/m 3,2 km/h (1 Bft) 95,65 %
05.03.2023 17:38 5,2 C 4,4 C 1,1 C 86 % 1012,7 hPa 0,0 l/m 0 min 0 min 11 W/m 3,2 km/h (1 Bft) 97,87 %
05.03.2023 17:40 5,2 C 4,4 C 1,1 C 86 % 1012,7 hPa 0,0 l/m 0 min 0 min 10 W/m 3,2 km/h (1 Bft) 97,87 %
05.03.2023 17:42 5,2 C 4,4 C 1,1 C 86 % 1012,8 hPa 0,0 l/m 0 min 0 min 7 W/m 3,2 km/h (1 Bft) 95,74 %
05.03.2023 17:44 5,2 C 4,4 C 1,1 C 86 % 1012,7 hPa 0,0 l/m 0 min 0 min 7 W/m 3,2 km/h (1 Bft) 95,74 %
05.03.2023 17:46 5,2 C 4,4 C 1,1 C 86 % 1012,7 hPa 0,0 l/m 0 min 0 min 5 W/m 3,2 km/h (1 Bft) 96,23 %
05.03.2023 17:48 5,2 C 4,4 C 1,1 C 86 % 1012,7 hPa 0,0 l/m 0 min 0 min 5 W/m 6,4 km/h (2 Bft) 97,37 %
05.03.2023 17:50 5,1 C 4,4 C 1,1 C 86 % 1012,7 hPa 0,0 l/m 0 min 0 min 0 W/m 0,0 km/h (0 Bft) 95,92 %
05.03.2023 17:52 5,1 C 4,4 C 1,1 C 86 % 1012,7 hPa 0,0 l/m 0 min 0 min 0 W/m 3,2 km/h (1 Bft) 95,74 %
05.03.2023 17:54 5,1 C 4,4 C 1,1 C 86 % 1012,7 hPa 0,0 l/m 0 min 0 min 0 W/m 3,2 km/h (1 Bft) 90,74 %
05.03.2023 17:56 5,1 C 4,4 C 1,1 C 86 % 1012,7 hPa 0,0 l/m 0 min 0 min 0 W/m 3,2 km/h (1 Bft) 94,74 %
05.03.2023 17:58 5,1 C 4,4 C 1,1 C 86 % 1012,7 hPa 0,0 l/m 0 min 0 min 1 W/m 3,2 km/h (1 Bft) 95,74 %
05.03.2023 18:00 5,1 C 4,4 C 1,1 C 86 % 1012,7 hPa 0,0 l/m 0 min 0 min 5 W/m 3,2 km/h (1 Bft) 84,78 %
05.03.2023 18:02 5,1 C 4,4 C 1,1 C 86 % 1012,7 hPa 0,0 l/m 0 min 0 min 4 W/m 3,2 km/h (1 Bft) 87,23 %
05.03.2023 18:04 5,1 C 4,4 C 1,1 C 86 % 1012,7 hPa 0,0 l/m 0 min 0 min 0 W/m 3,2 km/h (1 Bft) 91,49 %
05.03.2023 18:08 5,0 C 4,4 C 1,1 C 86 % 1012,6 hPa 0,0 l/m 0 min 0 min 0 W/m 3,2 km/h (1 Bft) 93,68 %
05.03.2023 18:10 5,0 C 4,4 C 1,1 C 86 % 1012,7 hPa 0,0 l/m 0 min 0 min 0 W/m 3,2 km/h (1 Bft) 78,72 %
05.03.2023 18:12 5,0 C 4,4 C 1,1 C 86 % 1012,6 hPa 0,0 l/m 0 min 0 min 0 W/m 3,2 km/h (1 Bft) 91,49 %
05.03.2023 18:14 5,0 C 4,4 C 1,1 C 86 % 1012,6 hPa 0,0 l/m 0 min 0 min 0 W/m 6,4 km/h (2 Bft) 89,13 %
05.03.2023 18:16 4,9 C 4,4 C 1,1 C 86 % 1012,5 hPa 0,0 l/m 0 min 0 min 0 W/m 3,2 km/h (1 Bft) 74,47 %
05.03.2023 18:18 4,9 C 4,4 C 1,1 C 86 % 1012,5 hPa 0,0 l/m 0 min 0 min 0 W/m 0,0 km/h (0 Bft) 91,49 %
05.03.2023 18:20 4,9 C 4,4 C 1,1 C 86 % 1012,5 hPa 0,0 l/m 0 min 0 min 0 W/m 3,2 km/h (1 Bft) 87,23 %
05.03.2023 18:22 4,9 C 4,4 C 1,1 C 86 % 1012,4 hPa 0,0 l/m 0 min 0 min 0 W/m 3,2 km/h (1 Bft) 87,23 %
05.03.2023 18:24 4,9 C 4,4 C 1,1 C 86 % 1012,5 hPa 0,0 l/m 0 min 0 min 0 W/m 3,2 km/h (1 Bft) 93,62 %
05.03.2023 18:26 4,9 C 4,4 C 1,1 C 86 % 1012,4 hPa 0,0 l/m 0 min 0 min 0 W/m 6,4 km/h (2 Bft) 95,65 %
05.03.2023 18:28 4,9 C 4,4 C 1,1 C 85 % 1012,4 hPa 0,0 l/m 0 min 0 min 0 W/m 6,4 km/h (2 Bft) 95,74 %
05.03.2023 18:30 4,9 C 4,4 C 1,1 C 85 % 1012,4 hPa 0,0 l/m 0 min 0 min 0 W/m 6,4 km/h (2 Bft) 93,62 %
05.03.2023 18:32 4,8 C 4,4 C 1,1 C 85 % 1012,4 hPa 0,0 l/m 0 min 0 min 0 W/m 3,2 km/h (1 Bft) 95,74 %
05.03.2023 18:34 4,8 C 4,4 C 1,1 C 85 % 1012,4 hPa 0,0 l/m 0 min 0 min 0 W/m 6,4 km/h (2 Bft) 97,87 %
05.03.2023 18:36 4,8 C 3,9 C 1,1 C 85 % 1012,5 hPa 0,0 l/m 0 min 2 min 0 W/m 9,7 km/h (2 Bft) 95,74 %
05.03.2023 18:38 4,8 C 3,9 C 1,1 C 85 % 1012,5 hPa 0,0 l/m 0 min 0 min 0 W/m 12,9 km/h (3 Bft) 97,87 %
05.03.2023 18:40 4,8 C 3,9 C 1,1 C 86 % 1012,5 hPa 0,0 l/m 0 min 0 min 0 W/m 9,7 km/h (2 Bft) 95,65 %
05.03.2023 18:42 4,8 C 3,9 C 1,1 C 86 % 1012,4 hPa 0,0 l/m 0 min 0 min 0 W/m 6,4 km/h (2 Bft) 95,74 %
05.03.2023 18:44 4,8 C 3,9 C 1,1 C 86 % 1012,5 hPa 0,0 l/m 0 min 0 min 0 W/m 12,9 km/h (3 Bft) 97,87 %
05.03.2023 18:46 4,8 C 3,9 C 1,1 C 86 % 1012,5 hPa 0,0 l/m 0 min 0 min 0 W/m 12,9 km/h (3 Bft) 97,87 %
05.03.2023 18:48 4,8 C 3,9 C 0,6 C 86 % 1012,4 hPa 0,0 l/m 0 min 0 min 0 W/m 3,2 km/h (1 Bft) 93,62 %
05.03.2023 18:50 4,7 C 3,9 C 0,6 C 86 % 1012,5 hPa 0,0 l/m 0 min 0 min 0 W/m 6,4 km/h (2 Bft) 97,87 %
05.03.2023 18:52 4,8 C 3,9 C 0,6 C 86 % 1012,5 hPa 0,0 l/m 0 min 0 min 0 W/m 3,2 km/h (1 Bft) 95,74 %
05.03.2023 18:54 4,7 C 3,9 C 0,6 C 86 % 1012,5 hPa 0,0 l/m 0 min 0 min 0 W/m 6,4 km/h (2 Bft) 95,65 %
05.03.2023 18:56 4,7 C 3,9 C 0,6 C 86 % 1012,5 hPa 0,0 l/m 0 min 0 min 0 W/m 3,2 km/h (1 Bft) 97,87 %
05.03.2023 18:58 4,7 C 3,9 C 0,6 C 86 % 1012,5 hPa 0,0 l/m 0 min 0 min 0 W/m 6,4 km/h (2 Bft) 91,49 %
05.03.2023 19:00 4,7 C 3,9 C 0,6 C 86 % 1012,5 hPa 0,0 l/m 0 min 0 min 0 W/m 9,7 km/h (2 Bft) 93,62 %
05.03.2023 19:02 4,7 C 3,9 C 0,6 C 86 % 1012,5 hPa 0,0 l/m 0 min 0 min 0 W/m 6,4 km/h (2 Bft) 97,87 %
05.03.2023 19:04 4,7 C 3,9 C 0,6 C 86 % 1012,5 hPa 0,0 l/m 0 min 0 min 0 W/m 3,2 km/h (1 Bft) 100,00 %
05.03.2023 19:06 4,7 C 3,9 C 0,6 C 86 % 1012,4 hPa 0,0 l/m 0 min 0 min 0 W/m 6,4 km/h (2 Bft) 95,74 %
05.03.2023 19:08 4,6 C 3,9 C 0,6 C 86 % 1012,4 hPa 0,0 l/m 0 min 0 min 0 W/m 3,2 km/h (1 Bft) 97,62 %
05.03.2023 19:10 4,6 C 3,9 C 0,6 C 86 % 1012,4 hPa 0,0 l/m 0 min 0 min 0 W/m 6,4 km/h (2 Bft) 97,87 %
05.03.2023 19:12 4,6 C 3,9 C 0,6 C 86 % 1012,4 hPa 0,0 l/m 0 min 0 min 0 W/m 6,4 km/h (2 Bft) 97,87 %
05.03.2023 19:14 4,6 C 3,9 C 0,6 C 86 % 1012,4 hPa 0,0 l/m 0 min 0 min 0 W/m 6,4 km/h (2 Bft) 100,00 %
05.03.2023 19:16 4,6 C 3,9 C 0,6 C 86 % 1012,4 hPa 0,0 l/m 0 min 0 min 0 W/m 6,4 km/h (2 Bft) 100,00 %
05.03.2023 19:18 4,6 C 3,9 C 0,6 C 87 % 1012,4 hPa 0,0 l/m 0 min 0 min 0 W/m 6,4 km/h (2 Bft) 93,62 %
05.03.2023 19:20 4,6 C 3,9 C 0,6 C 87 % 1012,4 hPa 0,0 l/m 0 min 0 min 0 W/m 6,4 km/h (2 Bft) 97,96 %
05.03.2023 19:22 4,6 C 3,9 C 0,6 C 87 % 1012,3 hPa 0,0 l/m 0 min 0 min 0 W/m 6,4 km/h (2 Bft) 95,74 %
05.03.2023 19:24 4,5 C 3,9 C 0,6 C 87 % 1012,3 hPa 0,0 l/m 0 min 0 min 0 W/m 6,4 km/h (2 Bft) 95,74 %
05.03.2023 19:26 4,5 C 3,9 C 0,6 C 87 % 1012,3 hPa 0,0 l/m 0 min 0 min 0 W/m 3,2 km/h (1 Bft) 95,74 %
05.03.2023 19:28 4,4 C 3,9 C 0,6 C 87 % 1012,3 hPa 0,0 l/m 0 min 0 min 0 W/m 6,4 km/h (2 Bft) 95,74 %
05.03.2023 19:30 4,4 C 3,9 C 0,6 C 87 % 1012,3 hPa 0,0 l/m 0 min 0 min 0 W/m 6,4 km/h (2 Bft) 95,74 %
05.03.2023 19:32 4,4 C 3,9 C 0,6 C 87 % 1012,2 hPa 0,0 l/m 0 min 0 min 0 W/m 6,4 km/h (2 Bft) 97,87 %
05.03.2023 19:34 4,4 C 3,9 C 0,6 C 87 % 1012,2 hPa 0,0 l/m 0 min 0 min 0 W/m 12,9 km/h (3 Bft) 97,87 %
05.03.2023 19:36 4,4 C 3,9 C 0,6 C 87 % 1012,2 hPa 0,0 l/m 0 min 0 min 0 W/m 6,4 km/h (2 Bft) 93,48 %
05.03.2023 19:38 4,3 C 3,9 C 0,6 C 87 % 1012,3 hPa 0,0 l/m 0 min 0 min 0 W/m 6,4 km/h (2 Bft) 97,87 %
05.03.2023 19:40 4,3 C 3,9 C 0,6 C 87 % 1012,2 hPa 0,0 l/m 0 min 0 min 0 W/m 6,4 km/h (2 Bft) 97,87 %
05.03.2023 19:42 4,3 C 3,9 C 0,6 C 87 % 1012,2 hPa 0,0 l/m 0 min 0 min 0 W/m 6,4 km/h (2 Bft) 97,87 %
05.03.2023 19:44 4,3 C 3,9 C 0,6 C 87 % 1012,1 hPa 0,0 l/m 0 min 0 min 0 W/m 6,4 km/h (2 Bft) 97,87 %
05.03.2023 19:46 4,3 C 3,9 C 0,6 C 87 % 1012,1 hPa 0,0 l/m 0 min 0 min 0 W/m 6,4 km/h (2 Bft) 97,87 %
05.03.2023 19:48 4,3 C 3,9 C 0,6 C 87 % 1012,1 hPa 0,0 l/m 0 min 0 min 0 W/m 6,4 km/h (2 Bft) 97,83 %
05.03.2023 19:50 4,3 C 3,3 C 0,6 C 87 % 1012,1 hPa 0,0 l/m 0 min 0 min 0 W/m 3,2 km/h (1 Bft) 97,87 %
05.03.2023 19:52 4,3 C 3,3 C 0,6 C 87 % 1012,1 hPa 0,0 l/m 0 min 0 min 0 W/m 6,4 km/h (2 Bft) 95,74 %
05.03.2023 19:54 4,3 C 3,3 C 0,6 C 87 % 1012,1 hPa 0,0 l/m 0 min 0 min 0 W/m 6,4 km/h (2 Bft) 97,87 %
05.03.2023 19:56 4,2 C 3,3 C 0,6 C 87 % 1012,1 hPa 0,0 l/m 0 min 0 min 0 W/m 6,4 km/h (2 Bft) 97,87 %
05.03.2023 19:58 4,2 C 3,3 C 0,6 C 87 % 1012,1 hPa 0,0 l/m 0 min 0 min 0 W/m 6,4 km/h (2 Bft) 95,74 %
05.03.2023 20:00 4,2 C 3,3 C 0,6 C 87 % 1012,1 hPa 0,0 l/m 0 min 0 min 0 W/m 9,7 km/h (2 Bft) 100,00 %
05.03.2023 20:02 4,2 C 3,3 C 0,6 C 87 % 1012,0 hPa 0,0 l/m 0 min 0 min 0 W/m 6,4 km/h (2 Bft) 97,83 %
05.03.2023 20:04 4,2 C 3,3 C 0,6 C 87 % 1012,0 hPa 0,0 l/m 0 min 0 min 0 W/m 12,9 km/h (3 Bft) 100,00 %
05.03.2023 20:06 4,2 C 3,3 C 0,0 C 88 % 1012,0 hPa 0,0 l/m 0 min 0 min 0 W/m 6,4 km/h (2 Bft) 100,00 %
05.03.2023 20:08 4,2 C 3,3 C 0,0 C 88 % 1012,0 hPa 0,0 l/m 0 min 0 min 0 W/m 3,2 km/h (1 Bft) 97,87 %
05.03.2023 20:10 4,2 C 3,3 C 0,0 C 88 % 1012,0 hPa 0,0 l/m 0 min 0 min 0 W/m 3,2 km/h (1 Bft) 97,87 %
05.03.2023 20:12 4,2 C 3,3 C 0,0 C 88 % 1012,0 hPa 0,0 l/m 0 min 0 min 0 W/m 3,2 km/h (1 Bft) 100,00 %
05.03.2023 20:14 4,2 C 3,3 C 0,0 C 88 % 1012,0 hPa 0,0 l/m 0 min 0 min 0 W/m 6,4 km/h (2 Bft) 97,92 %
05.03.2023 20:16 4,2 C 3,3 C 0,0 C 88 % 1012,0 hPa 0,0 l/m 0 min 0 min 0 W/m 6,4 km/h (2 Bft) 97,87 %
05.03.2023 20:18 4,1 C 3,3 C 0,6 C 88 % 1012,0 hPa 0,0 l/m 0 min 0 min 0 W/m 6,4 km/h (2 Bft) 97,87 %
05.03.2023 20:20 4,1 C 3,3 C 0,6 C 88 % 1012,0 hPa 0,0 l/m 0 min 0 min 0 W/m 3,2 km/h (1 Bft) 95,74 %
05.03.2023 20:22 4,1 C 3,3 C 0,6 C 88 % 1011,9 hPa 0,0 l/m 0 min 0 min 0 W/m 6,4 km/h (2 Bft) 97,87 %
05.03.2023 20:24 4,1 C 3,3 C 0,6 C 88 % 1011,9 hPa 0,0 l/m 0 min 0 min 0 W/m 3,2 km/h (1 Bft) 97,87 %
05.03.2023 20:26 4,1 C 3,3 C 0,0 C 88 % 1011,9 hPa 0,0 l/m 0 min 0 min 0 W/m 3,2 km/h (1 Bft) 97,87 %
05.03.2023 20:28 4,1 C 3,3 C 0,6 C 88 % 1011,9 hPa 0,0 l/m 0 min 0 min 0 W/m 6,4 km/h (2 Bft) 93,62 %
05.03.2023 20:30 4,1 C 3,3 C 0,0 C 88 % 1011,8 hPa 0,0 l/m 0 min 0 min 0 W/m 6,4 km/h (2 Bft) 97,87 %
05.03.2023 20:32 4,1 C 3,3 C 0,0 C 88 % 1011,8 hPa 0,0 l/m 0 min 0 min 0 W/m 6,4 km/h (2 Bft) 97,83 %
05.03.2023 20:34 4,1 C 3,3 C 0,0 C 88 % 1011,9 hPa 0,0 l/m 0 min 0 min 0 W/m 6,4 km/h (2 Bft) 97,87 %
05.03.2023 20:36 4,1 C 3,3 C 0,0 C 88 % 1011,8 hPa 0,0 l/m 0 min 0 min 0 W/m 3,2 km/h (1 Bft) 97,87 %
05.03.2023 20:38 4,1 C 3,3 C 0,0 C 88 % 1011,8 hPa 0,0 l/m 0 min 0 min 0 W/m 6,4 km/h (2 Bft) 97,87 %
05.03.2023 20:40 4,1 C 3,3 C 0,0 C 88 % 1011,7 hPa 0,0 l/m 0 min 0 min 0 W/m 6,4 km/h (2 Bft) 97,87 %
05.03.2023 20:42 4,1 C 3,3 C 0,0 C 89 % 1011,7 hPa 0,0 l/m 0 min 0 min 0 W/m 6,4 km/h (2 Bft) 95,74 %
05.03.2023 20:44 4,1 C 3,3 C 0,0 C 89 % 1011,7 hPa 0,0 l/m 0 min 0 min 0 W/m 12,9 km/h (3 Bft) 97,83 %
05.03.2023 20:46 4,1 C 3,3 C 0,0 C 89 % 1011,6 hPa 0,0 l/m 0 min 0 min 0 W/m 6,4 km/h (2 Bft) 97,87 %
05.03.2023 20:48 4,1 C 3,3 C 0,0 C 89 % 1011,6 hPa 0,0 l/m 0 min 0 min 0 W/m 6,4 km/h (2 Bft) 97,87 %
05.03.2023 20:50 4,0 C 3,3 C 0,0 C 89 % 1011,6 hPa 0,0 l/m 0 min 0 min 0 W/m 6,4 km/h (2 Bft) 97,87 %
05.03.2023 20:52 4,0 C 3,3 C 0,0 C 89 % 1011,6 hPa 0,0 l/m 0 min 0 min 0 W/m 6,4 km/h (2 Bft) 97,87 %
05.03.2023 20:54 4,0 C 3,3 C 0,0 C 89 % 1011,6 hPa 0,0 l/m 0 min 0 min 0 W/m 6,4 km/h (2 Bft) 100,00 %
05.03.2023 20:56 4,0 C 3,3 C 0,0 C 89 % 1011,6 hPa 0,0 l/m 0 min 0 min 0 W/m 9,7 km/h (2 Bft) 95,74 %
05.03.2023 20:58 4,0 C 3,3 C 0,0 C 89 % 1011,6 hPa 0,0 l/m 0 min 0 min 0 W/m 9,7 km/h (2 Bft) 97,83 %
05.03.2023 21:00 3,9 C 3,3 C 0,0 C 89 % 1011,6 hPa 0,0 l/m 0 min 0 min 0 W/m 9,7 km/h (2 Bft) 100,00 %
05.03.2023 21:02 4,0 C 3,3 C 0,0 C 89 % 1011,5 hPa 0,0 l/m 0 min 0 min 0 W/m 6,4 km/h (2 Bft) 97,67 %
05.03.2023 21:04 4,0 C 3,3 C 0,0 C 89 % 1011,6 hPa 0,0 l/m 0 min 0 min 0 W/m 6,4 km/h (2 Bft) 100,00 %
05.03.2023 21:06 4,0 C 3,3 C 0,0 C 89 % 1011,6 hPa 0,0 l/m 0 min 0 min 0 W/m 6,4 km/h (2 Bft) 100,00 %
05.03.2023 21:08 3,9 C 3,3 C 0,0 C 89 % 1011,6 hPa 0,0 l/m 0 min 0 min 0 W/m 12,9 km/h (3 Bft) 97,14 %
05.03.2023 21:10 3,9 C 3,3 C 0,0 C 89 % 1011,5 hPa 0,0 l/m 0 min 0 min 0 W/m 6,4 km/h (2 Bft) 89,58 %
05.03.2023 21:12 3,9 C 3,3 C 0,0 C 90 % 1011,5 hPa 0,0 l/m 0 min 0 min 0 W/m 6,4 km/h (2 Bft) 60,47 %
05.03.2023 21:14 3,9 C 3,3 C 0,0 C 90 % 1011,5 hPa 0,0 l/m 0 min 0 min 0 W/m 6,4 km/h (2 Bft) 93,62 %
05.03.2023 21:16 3,9 C 3,3 C 0,0 C 90 % 1011,5 hPa 0,0 l/m 0 min 0 min 0 W/m 12,9 km/h (3 Bft) 95,74 %
05.03.2023 21:18 3,9 C 3,3 C 0,0 C 90 % 1011,4 hPa 0,0 l/m 0 min 0 min 0 W/m 6,4 km/h (2 Bft) 95,74 %
05.03.2023 21:20 3,9 C 3,3 C 0,0 C 90 % 1011,5 hPa 0,0 l/m 0 min 0 min 0 W/m 6,4 km/h (2 Bft) 95,74 %
05.03.2023 21:22 3,9 C 3,3 C 0,0 C 90 % 1011,5 hPa 0,0 l/m 0 min 0 min 0 W/m 6,4 km/h (2 Bft) 93,88 %
05.03.2023 21:24 3,9 C 3,3 C 0,0 C 90 % 1011,4 hPa 0,0 l/m 0 min 0 min 0 W/m 12,9 km/h (3 Bft) 95,74 %
05.03.2023 21:26 3,9 C 3,3 C 0,0 C 90 % 1011,4 hPa 0,0 l/m 0 min 0 min 0 W/m 6,4 km/h (2 Bft) 97,87 %
05.03.2023 21:28 3,9 C 3,3 C 0,0 C 90 % 1011,4 hPa 0,0 l/m 0 min 0 min 0 W/m 6,4 km/h (2 Bft) 95,74 %
05.03.2023 21:30 3,9 C 3,3 C 0,0 C 91 % 1011,3 hPa 0,0 l/m 0 min 2 min 0 W/m 6,4 km/h (2 Bft) 95,74 %
05.03.2023 21:32 3,8 C 3,3 C 0,0 C 91 % 1011,3 hPa 0,0 l/m 0 min 0 min 0 W/m 6,4 km/h (2 Bft) 95,74 %
05.03.2023 21:34 3,8 C 3,3 C 0,0 C 91 % 1011,3 hPa 0,0 l/m 0 min 0 min 0 W/m 3,2 km/h (1 Bft) 95,65 %
05.03.2023 21:36 3,8 C 3,3 C 0,0 C 91 % 1011,3 hPa 0,0 l/m 0 min 0 min 0 W/m 16,1 km/h (3 Bft) 95,83 %
05.03.2023 21:38 3,8 C 3,3 C 0,0 C 91 % 1011,3 hPa 0,0 l/m 0 min 0 min 0 W/m 6,4 km/h (2 Bft) 93,48 %
05.03.2023 21:40 3,8 C 3,3 C 0,0 C 91 % 1011,3 hPa 0,0 l/m 0 min 0 min 0 W/m 3,2 km/h (1 Bft) 91,49 %
05.03.2023 21:42 3,8 C 2,8 C 0,0 C 91 % 1011,3 hPa 0,0 l/m 0 min 0 min 0 W/m 12,9 km/h (3 Bft) 97,87 %
05.03.2023 21:44 3,8 C 2,8 C 0,0 C 91 % 1011,2 hPa 0,0 l/m 0 min 0 min 0 W/m 6,4 km/h (2 Bft) 97,87 %
05.03.2023 21:46 3,8 C 2,8 C -0,6 C 91 % 1011,2 hPa 0,0 l/m 0 min 0 min 0 W/m 6,4 km/h (2 Bft) 97,87 %
05.03.2023 21:48 3,7 C 2,8 C -0,6 C 91 % 1011,2 hPa 0,0 l/m 0 min 0 min 0 W/m 12,9 km/h (3 Bft) 97,87 %
05.03.2023 21:50 3,6 C 2,8 C -0,6 C 91 % 1011,2 hPa 0,0 l/m 0 min 0 min 0 W/m 9,7 km/h (2 Bft) 97,87 %
05.03.2023 21:52 3,6 C 2,8 C -0,6 C 92 % 1011,2 hPa 0,0 l/m 0 min 2 min 0 W/m 9,7 km/h (2 Bft) 95,65 %
05.03.2023 21:54 3,5 C 2,8 C -0,6 C 92 % 1011,2 hPa 0,0 l/m 0 min 2 min 0 W/m 9,7 km/h (2 Bft) 95,74 %
05.03.2023 21:56 3,4 C 2,8 C -0,6 C 91 % 1011,2 hPa 0,0 l/m 0 min 2 min 0 W/m 6,4 km/h (2 Bft) 97,78 %
05.03.2023 21:58 3,4 C 2,8 C -0,6 C 92 % 1011,1 hPa 0,0 l/m 0 min 0 min 0 W/m 6,4 km/h (2 Bft) 95,74 %
05.03.2023 22:00 3,4 C 2,8 C -0,6 C 92 % 1011,2 hPa 0,0 l/m 0 min 2 min 0 W/m 6,4 km/h (2 Bft) 97,87 %
05.03.2023 22:02 3,4 C 2,8 C -0,6 C 92 % 1011,1 hPa 0,0 l/m 0 min 2 min 0 W/m 6,4 km/h (2 Bft) 91,49 %
05.03.2023 22:04 3,4 C 2,8 C -0,6 C 92 % 1011,1 hPa 0,0 l/m 0 min 0 min 0 W/m 6,4 km/h (2 Bft) 97,87 %
05.03.2023 22:06 3,4 C 2,8 C -0,6 C 92 % 1011,1 hPa 0,2 l/m 0 min 0 min 0 W/m 9,7 km/h (2 Bft) 95,74 %
05.03.2023 22:08 3,4 C 2,8 C -0,6 C 92 % 1011,0 hPa 0,0 l/m 0 min 0 min 0 W/m 6,4 km/h (2 Bft) 72,34 %
05.03.2023 22:10 3,4 C 2,8 C -0,6 C 92 % 1011,0 hPa 0,0 l/m 0 min 0 min 0 W/m 3,2 km/h (1 Bft) 70,97 %
05.03.2023 22:12 3,4 C 2,8 C -0,6 C 92 % 1011,0 hPa 0,0 l/m 0 min 0 min 0 W/m 6,4 km/h (2 Bft) 97,87 %
05.03.2023 22:14 3,4 C 2,8 C -0,6 C 93 % 1011,0 hPa 0,0 l/m 0 min 0 min 0 W/m 3,2 km/h (1 Bft) 97,83 %
05.03.2023 22:16 3,4 C 2,8 C -0,6 C 93 % 1011,0 hPa 0,0 l/m 0 min 0 min 0 W/m 3,2 km/h (1 Bft) 97,87 %
05.03.2023 22:18 3,4 C 2,8 C -0,6 C 93 % 1010,9 hPa 0,0 l/m 0 min 0 min 0 W/m 3,2 km/h (1 Bft) 100,00 %
05.03.2023 22:20 3,4 C 2,8 C -0,6 C 93 % 1010,9 hPa 0,0 l/m 0 min 0 min 0 W/m 3,2 km/h (1 Bft) 97,87 %
05.03.2023 22:22 3,4 C 2,8 C -0,6 C 93 % 1010,9 hPa 0,0 l/m 0 min 0 min 0 W/m 0,0 km/h (0 Bft) 100,00 %
05.03.2023 22:24 3,4 C 2,8 C -0,6 C 93 % 1010,9 hPa 0,0 l/m 0 min 0 min 0 W/m 3,2 km/h (1 Bft) 100,00 %
05.03.2023 22:26 3,4 C 2,8 C -0,6 C 93 % 1010,9 hPa 0,0 l/m 0 min 0 min 0 W/m 3,2 km/h (1 Bft) 95,74 %
05.03.2023 22:28 3,4 C 2,8 C -0,6 C 93 % 1010,9 hPa 0,0 l/m 0 min 0 min 0 W/m 3,2 km/h (1 Bft) 97,87 %
05.03.2023 22:30 3,4 C 2,8 C -0,6 C 93 % 1010,8 hPa 0,0 l/m 0 min 0 min 0 W/m 3,2 km/h (1 Bft) 100,00 %
05.03.2023 22:32 3,4 C 2,8 C -0,6 C 93 % 1010,8 hPa 0,0 l/m 0 min 0 min 0 W/m 0,0 km/h (0 Bft) 100,00 %
05.03.2023 22:34 3,4 C 2,8 C -0,6 C 93 % 1010,8 hPa 0,0 l/m 0 min 0 min 0 W/m 3,2 km/h (1 Bft) 100,00 %
05.03.2023 22:36 3,4 C 2,8 C -0,6 C 93 % 1010,7 hPa 0,0 l/m 0 min 0 min 0 W/m 0,0 km/h (0 Bft) 97,83 %
05.03.2023 22:38 3,4 C 2,8 C -0,6 C 94 % 1010,7 hPa 0,0 l/m 0 min 0 min 0 W/m 0,0 km/h (0 Bft) 98,21 %
05.03.2023 22:40 3,4 C 2,8 C -0,6 C 94 % 1010,7 hPa 0,0 l/m 0 min 0 min 0 W/m 3,2 km/h (1 Bft) 97,83 %
05.03.2023 22:42 3,4 C 2,8 C -0,6 C 94 % 1010,7 hPa 0,0 l/m 0 min 0 min 0 W/m 0,0 km/h (0 Bft) 97,87 %
05.03.2023 22:44 3,4 C 2,8 C -0,6 C 94 % 1010,7 hPa 0,0 l/m 0 min 0 min 0 W/m 3,2 km/h (1 Bft) 93,62 %
05.03.2023 22:46 3,4 C 2,8 C -0,6 C 94 % 1010,6 hPa 0,0 l/m 0 min 0 min 0 W/m 3,2 km/h (1 Bft) 93,62 %
05.03.2023 22:48 3,4 C 2,8 C -0,6 C 94 % 1010,6 hPa 0,0 l/m 0 min 0 min 0 W/m 3,2 km/h (1 Bft) 97,87 %
05.03.2023 22:50 3,4 C 2,8 C -0,6 C 94 % 1010,6 hPa 0,0 l/m 0 min 0 min 0 W/m 6,4 km/h (2 Bft) 97,87 %
05.03.2023 22:52 3,4 C 2,8 C -0,6 C 94 % 1010,5 hPa 0,0 l/m 0 min 0 min 0 W/m 3,2 km/h (1 Bft) 97,87 %
05.03.2023 22:54 3,4 C 2,8 C -0,6 C 94 % 1010,5 hPa 0,0 l/m 0 min 0 min 0 W/m 3,2 km/h (1 Bft) 97,83 %
05.03.2023 22:56 3,4 C 2,8 C -0,6 C 94 % 1010,5 hPa 0,0 l/m 0 min 0 min 0 W/m 6,4 km/h (2 Bft) 95,74 %
05.03.2023 22:58 3,4 C 2,8 C -0,6 C 94 % 1010,4 hPa 0,0 l/m 0 min 0 min 0 W/m 3,2 km/h (1 Bft) 97,87 %
05.03.2023 23:00 3,4 C 2,8 C -0,6 C 94 % 1010,4 hPa 0,0 l/m 0 min 0 min 0 W/m 12,9 km/h (3 Bft) 93,62 %
05.03.2023 23:02 3,4 C 2,8 C -0,6 C 94 % 1010,4 hPa 0,0 l/m 0 min 0 min 0 W/m 6,4 km/h (2 Bft) 93,62 %
05.03.2023 23:04 3,4 C 2,8 C -0,6 C 94 % 1010,3 hPa 0,0 l/m 0 min 0 min 0 W/m 3,2 km/h (1 Bft) 95,74 %
05.03.2023 23:06 3,4 C 2,8 C -0,6 C 94 % 1010,3 hPa 0,0 l/m 0 min 0 min 0 W/m 6,4 km/h (2 Bft) 93,62 %
05.03.2023 23:08 3,4 C 2,8 C -0,6 C 94 % 1010,3 hPa 0,0 l/m 0 min 0 min 0 W/m 6,4 km/h (2 Bft) 93,62 %
05.03.2023 23:10 3,4 C 2,8 C -0,6 C 94 % 1010,3 hPa 0,0 l/m 0 min 0 min 0 W/m 0,0 km/h (0 Bft) 93,62 %
05.03.2023 23:12 3,4 C 2,8 C -0,6 C 94 % 1010,3 hPa 0,0 l/m 0 min 0 min 0 W/m 3,2 km/h (1 Bft) 97,87 %
05.03.2023 23:14 3,4 C 2,8 C -0,6 C 94 % 1010,2 hPa 0,0 l/m 0 min 0 min 0 W/m 9,7 km/h (2 Bft) 95,83 %
05.03.2023 23:16 3,4 C 2,8 C -0,6 C 94 % 1010,2 hPa 0,0 l/m 0 min 0 min 0 W/m 3,2 km/h (1 Bft) 88,24 %
05.03.2023 23:18 3,4 C 2,8 C -0,6 C 94 % 1010,2 hPa 0,0 l/m 0 min 0 min 0 W/m 6,4 km/h (2 Bft) 97,87 %
05.03.2023 23:20 3,4 C 2,8 C -0,6 C 94 % 1010,1 hPa 0,0 l/m 0 min 2 min 0 W/m 6,4 km/h (2 Bft) 95,65 %
05.03.2023 23:22 3,4 C 2,8 C -0,6 C 94 % 1010,1 hPa 0,0 l/m 0 min 0 min 0 W/m 3,2 km/h (1 Bft) 97,87 %
05.03.2023 23:24 3,3 C 2,8 C -0,6 C 94 % 1010,1 hPa 0,0 l/m 0 min 0 min 0 W/m 6,4 km/h (2 Bft) 98,00 %
05.03.2023 23:26 3,3 C 2,8 C -0,6 C 94 % 1010,1 hPa 0,0 l/m 0 min 0 min 0 W/m 3,2 km/h (1 Bft) 97,14 %
05.03.2023 23:28 3,3 C 2,8 C -0,6 C 94 % 1010,1 hPa 0,0 l/m 0 min 0 min 0 W/m 9,7 km/h (2 Bft) 100,00 %
05.03.2023 23:30 3,3 C 2,8 C -0,6 C 94 % 1010,0 hPa 0,0 l/m 0 min 0 min 0 W/m 3,2 km/h (1 Bft) 100,00 %
05.03.2023 23:32 3,3 C 2,8 C -0,6 C 94 % 1010,0 hPa 0,0 l/m 0 min 0 min 0 W/m 9,7 km/h (2 Bft) 100,00 %
05.03.2023 23:34 3,3 C 2,8 C -0,6 C 94 % 1010,0 hPa 0,0 l/m 0 min 0 min 0 W/m 6,4 km/h (2 Bft) 97,87 %
05.03.2023 23:36 3,3 C 2,8 C -0,6 C 94 % 1010,0 hPa 0,0 l/m 0 min 0 min 0 W/m 6,4 km/h (2 Bft) 100,00 %
05.03.2023 23:38 3,3 C 2,8 C -0,6 C 94 % 1009,9 hPa 0,0 l/m 0 min 0 min 0 W/m 6,4 km/h (2 Bft) 100,00 %
05.03.2023 23:40 3,2 C 2,8 C -0,6 C 94 % 1009,9 hPa 0,0 l/m 0 min 0 min 0 W/m 6,4 km/h (2 Bft) 100,00 %
05.03.2023 23:42 3,2 C 2,8 C -0,6 C 94 % 1009,9 hPa 0,0 l/m 0 min 0 min 0 W/m 6,4 km/h (2 Bft) 100,00 %
05.03.2023 23:44 3,2 C 2,8 C -0,6 C 94 % 1009,9 hPa 0,0 l/m 0 min 0 min 0 W/m 9,7 km/h (2 Bft) 100,00 %
05.03.2023 23:46 3,2 C 2,8 C -0,6 C 94 % 1009,9 hPa 0,0 l/m 0 min 0 min 0 W/m 6,4 km/h (2 Bft) 100,00 %
05.03.2023 23:48 3,2 C 2,8 C -0,6 C 94 % 1009,9 hPa 0,0 l/m 0 min 0 min 0 W/m 6,4 km/h (2 Bft) 100,00 %
05.03.2023 23:50 3,2 C 2,8 C -0,6 C 94 % 1009,9 hPa 0,0 l/m 0 min 0 min 0 W/m 3,2 km/h (1 Bft) 97,87 %
05.03.2023 23:52 3,2 C 2,8 C -0,6 C 94 % 1009,9 hPa 0,0 l/m 0 min 0 min 0 W/m 6,4 km/h (2 Bft) 100,00 %
05.03.2023 23:54 3,2 C 2,8 C -0,6 C 94 % 1009,9 hPa 0,0 l/m 0 min 0 min 0 W/m 3,2 km/h (1 Bft) 100,00 %
05.03.2023 23:56 3,2 C 2,8 C -0,6 C 94 % 1009,8 hPa 0,0 l/m 0 min 0 min 0 W/m 9,7 km/h (2 Bft) 100,00 %
05.03.2023 23:58 3,2 C 2,8 C -0,6 C 94 % 1009,9 hPa 0,0 l/m 0 min 0 min 0 W/m 12,9 km/h (3 Bft) 97,83 %
_ Min-Zeit 07:32 06:52 04:08 15:10 23:56 - - - - 03:18 01:54
Minimum _ 3,0 C 2,2 C -0,6 C 80 % 1009,8 hPa - - - - 0,0 km/h (0 Bft) 2,86 %
_ Max-Zeit 14:36 14:28 11:46 22:38 00:00 22:06 10:28 04:02 11:46 09:48 00:00
Maximum _ 6,2 C 7,2 C 2,8 C 94 % 1022,8 hPa 0,2 l/m 2 min 5 min 292 W/m 19,3 km/h
O-NO (3 Bft)
100,00 %
Durchschnitt _ 4,3 C 4,0 C 0,6 C 89 % 1016,6 hPa #0,2 l/m #26 min. #37 min. 111 W/m 6,6 km/h (2 Bft) 96,56 %
© 2023 W. Hausmann